<?xml version="1.0" encoding="UTF-8" standalone="no" ?>
<gpx xmlns="http://www.topografix.com/GPX/1/1" xmlns:xsi="http://www.w3.org/2001/XMLSchema-instance" xsi:schemaLocation="http://www.topografix.com/GPX/1/1 http://www.topografix.com/GPX/1/1/gpx.xsd" version="1.1" creator="VisuGPX - https://www.visugpx.com">
  <metadata>
    <name>2009 LAGAHL</name>
    <desc><![CDATA[Lozère-Aveyron-Gard-Ardèche-Haute Loire]]></desc>
  </metadata>
  <trk>
    <name><![CDATA[C02]]></name>
    <trkseg>
      <trkpt lat="44.19183" lon="3.20599">
        <ele>417</ele>
        <time>2009-07-08T12:35:23Z</time>
      </trkpt>
      <trkpt lat="44.19176" lon="3.20595">
        <ele>414</ele>
        <time>2009-07-08T12:35:40Z</time>
      </trkpt>
      <trkpt lat="44.1918" lon="3.20595">
        <ele>411</ele>
        <time>2009-07-08T12:36:05Z</time>
      </trkpt>
      <trkpt lat="44.19181" lon="3.20595">
        <ele>413</ele>
        <time>2009-07-08T12:36:08Z</time>
      </trkpt>
      <trkpt lat="44.19177" lon="3.20603">
        <ele>412</ele>
        <time>2009-07-08T12:37:45Z</time>
      </trkpt>
      <trkpt lat="44.19184" lon="3.20611">
        <ele>412</ele>
        <time>2009-07-08T12:41:47Z</time>
      </trkpt>
      <trkpt lat="44.19178" lon="3.20608">
        <ele>413</ele>
        <time>2009-07-08T12:42:02Z</time>
      </trkpt>
      <trkpt lat="44.19176" lon="3.20607">
        <ele>413</ele>
        <time>2009-07-08T12:42:04Z</time>
      </trkpt>
      <trkpt lat="44.19169" lon="3.20609">
        <ele>413</ele>
        <time>2009-07-08T12:42:08Z</time>
      </trkpt>
      <trkpt lat="44.1913" lon="3.20619">
        <ele>411</ele>
        <time>2009-07-08T12:42:25Z</time>
      </trkpt>
      <trkpt lat="44.19097" lon="3.20632">
        <ele>410</ele>
        <time>2009-07-08T12:42:34Z</time>
      </trkpt>
      <trkpt lat="44.19082" lon="3.20656">
        <ele>409</ele>
        <time>2009-07-08T12:42:40Z</time>
      </trkpt>
      <trkpt lat="44.19078" lon="3.20698">
        <ele>407</ele>
        <time>2009-07-08T12:42:48Z</time>
      </trkpt>
      <trkpt lat="44.19071" lon="3.20732">
        <ele>405</ele>
        <time>2009-07-08T12:42:53Z</time>
      </trkpt>
      <trkpt lat="44.1907" lon="3.2074">
        <ele>405</ele>
        <time>2009-07-08T12:42:54Z</time>
      </trkpt>
      <trkpt lat="44.19062" lon="3.20782">
        <ele>405</ele>
        <time>2009-07-08T12:43:04Z</time>
      </trkpt>
      <trkpt lat="44.19055" lon="3.20839">
        <ele>404</ele>
        <time>2009-07-08T12:43:15Z</time>
      </trkpt>
      <trkpt lat="44.19037" lon="3.20947">
        <ele>405</ele>
        <time>2009-07-08T12:43:32Z</time>
      </trkpt>
      <trkpt lat="44.1902" lon="3.20958">
        <ele>404</ele>
        <time>2009-07-08T12:43:37Z</time>
      </trkpt>
      <trkpt lat="44.19" lon="3.20953">
        <ele>404</ele>
        <time>2009-07-08T12:43:42Z</time>
      </trkpt>
      <trkpt lat="44.18985" lon="3.20976">
        <ele>404</ele>
        <time>2009-07-08T12:43:48Z</time>
      </trkpt>
      <trkpt lat="44.18968" lon="3.21043">
        <ele>408</ele>
        <time>2009-07-08T12:44:02Z</time>
      </trkpt>
      <trkpt lat="44.18935" lon="3.21057">
        <ele>410</ele>
        <time>2009-07-08T12:44:15Z</time>
      </trkpt>
      <trkpt lat="44.18908" lon="3.21037">
        <ele>412</ele>
        <time>2009-07-08T12:44:28Z</time>
      </trkpt>
      <trkpt lat="44.18877" lon="3.21">
        <ele>415</ele>
        <time>2009-07-08T12:44:43Z</time>
      </trkpt>
      <trkpt lat="44.18842" lon="3.20966">
        <ele>417</ele>
        <time>2009-07-08T12:44:59Z</time>
      </trkpt>
      <trkpt lat="44.18827" lon="3.20929">
        <ele>418</ele>
        <time>2009-07-08T12:45:11Z</time>
      </trkpt>
      <trkpt lat="44.18824" lon="3.20911">
        <ele>418</ele>
        <time>2009-07-08T12:45:16Z</time>
      </trkpt>
      <trkpt lat="44.18815" lon="3.20874">
        <ele>422</ele>
        <time>2009-07-08T12:45:27Z</time>
      </trkpt>
      <trkpt lat="44.18815" lon="3.20871">
        <ele>421</ele>
        <time>2009-07-08T12:45:28Z</time>
      </trkpt>
      <trkpt lat="44.18801" lon="3.20821">
        <ele>423</ele>
        <time>2009-07-08T12:45:43Z</time>
      </trkpt>
      <trkpt lat="44.18797" lon="3.20802">
        <ele>425</ele>
        <time>2009-07-08T12:45:49Z</time>
      </trkpt>
      <trkpt lat="44.18807" lon="3.20759">
        <ele>428</ele>
        <time>2009-07-08T12:46:04Z</time>
      </trkpt>
      <trkpt lat="44.18842" lon="3.20727">
        <ele>431</ele>
        <time>2009-07-08T12:46:21Z</time>
      </trkpt>
      <trkpt lat="44.18858" lon="3.20689">
        <ele>433</ele>
        <time>2009-07-08T12:46:36Z</time>
      </trkpt>
      <trkpt lat="44.18856" lon="3.20646">
        <ele>435</ele>
        <time>2009-07-08T12:46:50Z</time>
      </trkpt>
      <trkpt lat="44.18845" lon="3.20607">
        <ele>437</ele>
        <time>2009-07-08T12:47:03Z</time>
      </trkpt>
      <trkpt lat="44.18839" lon="3.20594">
        <ele>439</ele>
        <time>2009-07-08T12:47:08Z</time>
      </trkpt>
      <trkpt lat="44.18818" lon="3.20562">
        <ele>441</ele>
        <time>2009-07-08T12:47:21Z</time>
      </trkpt>
      <trkpt lat="44.18796" lon="3.20533">
        <ele>444</ele>
        <time>2009-07-08T12:47:36Z</time>
      </trkpt>
      <trkpt lat="44.18782" lon="3.20522">
        <ele>445</ele>
        <time>2009-07-08T12:47:45Z</time>
      </trkpt>
      <trkpt lat="44.18749" lon="3.20511">
        <ele>446</ele>
        <time>2009-07-08T12:48:03Z</time>
      </trkpt>
      <trkpt lat="44.18711" lon="3.20502">
        <ele>449</ele>
        <time>2009-07-08T12:48:24Z</time>
      </trkpt>
      <trkpt lat="44.18708" lon="3.205">
        <ele>449</ele>
        <time>2009-07-08T12:48:26Z</time>
      </trkpt>
      <trkpt lat="44.18702" lon="3.20497">
        <ele>449</ele>
        <time>2009-07-08T12:48:30Z</time>
      </trkpt>
      <trkpt lat="44.1868" lon="3.20483">
        <ele>452</ele>
        <time>2009-07-08T12:48:43Z</time>
      </trkpt>
      <trkpt lat="44.1865" lon="3.20438">
        <ele>455</ele>
        <time>2009-07-08T12:49:06Z</time>
      </trkpt>
      <trkpt lat="44.18647" lon="3.20432">
        <ele>456</ele>
        <time>2009-07-08T12:49:09Z</time>
      </trkpt>
      <trkpt lat="44.18621" lon="3.20389">
        <ele>458</ele>
        <time>2009-07-08T12:49:31Z</time>
      </trkpt>
      <trkpt lat="44.18605" lon="3.2037">
        <ele>461</ele>
        <time>2009-07-08T12:49:43Z</time>
      </trkpt>
      <trkpt lat="44.18575" lon="3.20346">
        <ele>464</ele>
        <time>2009-07-08T12:50:03Z</time>
      </trkpt>
      <trkpt lat="44.18569" lon="3.20379">
        <ele>465</ele>
        <time>2009-07-08T12:50:17Z</time>
      </trkpt>
      <trkpt lat="44.18587" lon="3.2042">
        <ele>467</ele>
        <time>2009-07-08T12:50:35Z</time>
      </trkpt>
      <trkpt lat="44.18593" lon="3.20466">
        <ele>470</ele>
        <time>2009-07-08T12:50:52Z</time>
      </trkpt>
      <trkpt lat="44.18608" lon="3.20516">
        <ele>471</ele>
        <time>2009-07-08T12:51:12Z</time>
      </trkpt>
      <trkpt lat="44.18616" lon="3.20534">
        <ele>474</ele>
        <time>2009-07-08T12:51:20Z</time>
      </trkpt>
      <trkpt lat="44.18647" lon="3.20561">
        <ele>476</ele>
        <time>2009-07-08T12:51:37Z</time>
      </trkpt>
      <trkpt lat="44.18679" lon="3.20596">
        <ele>478</ele>
        <time>2009-07-08T12:51:58Z</time>
      </trkpt>
      <trkpt lat="44.18683" lon="3.2064">
        <ele>482</ele>
        <time>2009-07-08T12:52:15Z</time>
      </trkpt>
      <trkpt lat="44.18662" lon="3.20688">
        <ele>484</ele>
        <time>2009-07-08T12:52:36Z</time>
      </trkpt>
      <trkpt lat="44.18641" lon="3.20736">
        <ele>488</ele>
        <time>2009-07-08T12:52:56Z</time>
      </trkpt>
      <trkpt lat="44.18638" lon="3.20751">
        <ele>488</ele>
        <time>2009-07-08T12:53:02Z</time>
      </trkpt>
      <trkpt lat="44.18635" lon="3.20783">
        <ele>490</ele>
        <time>2009-07-08T12:53:15Z</time>
      </trkpt>
      <trkpt lat="44.18632" lon="3.20825">
        <ele>493</ele>
        <time>2009-07-08T12:53:33Z</time>
      </trkpt>
      <trkpt lat="44.18619" lon="3.20863">
        <ele>496</ele>
        <time>2009-07-08T12:53:50Z</time>
      </trkpt>
      <trkpt lat="44.18597" lon="3.20909">
        <ele>499</ele>
        <time>2009-07-08T12:54:12Z</time>
      </trkpt>
      <trkpt lat="44.18589" lon="3.20952">
        <ele>501</ele>
        <time>2009-07-08T12:54:29Z</time>
      </trkpt>
      <trkpt lat="44.18572" lon="3.20994">
        <ele>503</ele>
        <time>2009-07-08T12:54:48Z</time>
      </trkpt>
      <trkpt lat="44.18547" lon="3.21025">
        <ele>506</ele>
        <time>2009-07-08T12:55:05Z</time>
      </trkpt>
      <trkpt lat="44.18524" lon="3.2105">
        <ele>509</ele>
        <time>2009-07-08T12:55:20Z</time>
      </trkpt>
      <trkpt lat="44.18493" lon="3.21073">
        <ele>511</ele>
        <time>2009-07-08T12:55:39Z</time>
      </trkpt>
      <trkpt lat="44.18467" lon="3.21084">
        <ele>513</ele>
        <time>2009-07-08T12:55:54Z</time>
      </trkpt>
      <trkpt lat="44.18435" lon="3.21093">
        <ele>516</ele>
        <time>2009-07-08T12:56:11Z</time>
      </trkpt>
      <trkpt lat="44.18408" lon="3.21128">
        <ele>518</ele>
        <time>2009-07-08T12:56:32Z</time>
      </trkpt>
      <trkpt lat="44.18376" lon="3.21137">
        <ele>521</ele>
        <time>2009-07-08T12:56:46Z</time>
      </trkpt>
      <trkpt lat="44.18348" lon="3.21151">
        <ele>522</ele>
        <time>2009-07-08T12:57:00Z</time>
      </trkpt>
      <trkpt lat="44.18345" lon="3.21134">
        <ele>523</ele>
        <time>2009-07-08T12:57:06Z</time>
      </trkpt>
      <trkpt lat="44.18374" lon="3.21104">
        <ele>525</ele>
        <time>2009-07-08T12:57:22Z</time>
      </trkpt>
      <trkpt lat="44.18406" lon="3.21085">
        <ele>527</ele>
        <time>2009-07-08T12:57:39Z</time>
      </trkpt>
      <trkpt lat="44.18444" lon="3.21075">
        <ele>529</ele>
        <time>2009-07-08T12:57:56Z</time>
      </trkpt>
      <trkpt lat="44.1847" lon="3.21054">
        <ele>532</ele>
        <time>2009-07-08T12:58:11Z</time>
      </trkpt>
      <trkpt lat="44.18486" lon="3.2103">
        <ele>534</ele>
        <time>2009-07-08T12:58:22Z</time>
      </trkpt>
      <trkpt lat="44.18502" lon="3.20996">
        <ele>536</ele>
        <time>2009-07-08T12:58:36Z</time>
      </trkpt>
      <trkpt lat="44.18519" lon="3.20952">
        <ele>536</ele>
        <time>2009-07-08T12:58:54Z</time>
      </trkpt>
      <trkpt lat="44.18523" lon="3.20926">
        <ele>538</ele>
        <time>2009-07-08T12:59:03Z</time>
      </trkpt>
      <trkpt lat="44.18525" lon="3.20914">
        <ele>539</ele>
        <time>2009-07-08T12:59:07Z</time>
      </trkpt>
      <trkpt lat="44.18537" lon="3.20866">
        <ele>541</ele>
        <time>2009-07-08T12:59:24Z</time>
      </trkpt>
      <trkpt lat="44.18547" lon="3.20823">
        <ele>544</ele>
        <time>2009-07-08T12:59:40Z</time>
      </trkpt>
      <trkpt lat="44.18548" lon="3.2077">
        <ele>545</ele>
        <time>2009-07-08T12:59:58Z</time>
      </trkpt>
      <trkpt lat="44.18546" lon="3.20725">
        <ele>549</ele>
        <time>2009-07-08T13:00:14Z</time>
      </trkpt>
      <trkpt lat="44.18549" lon="3.20678">
        <ele>552</ele>
        <time>2009-07-08T13:00:31Z</time>
      </trkpt>
      <trkpt lat="44.18549" lon="3.20676">
        <ele>552</ele>
        <time>2009-07-08T13:00:32Z</time>
      </trkpt>
      <trkpt lat="44.1854" lon="3.20645">
        <ele>555</ele>
        <time>2009-07-08T13:00:45Z</time>
      </trkpt>
      <trkpt lat="44.18533" lon="3.20641">
        <ele>556</ele>
        <time>2009-07-08T13:00:49Z</time>
      </trkpt>
      <trkpt lat="44.18501" lon="3.20621">
        <ele>557</ele>
        <time>2009-07-08T13:01:07Z</time>
      </trkpt>
      <trkpt lat="44.18475" lon="3.20585">
        <ele>560</ele>
        <time>2009-07-08T13:01:26Z</time>
      </trkpt>
      <trkpt lat="44.18451" lon="3.20549">
        <ele>564</ele>
        <time>2009-07-08T13:01:43Z</time>
      </trkpt>
      <trkpt lat="44.18425" lon="3.20513">
        <ele>566</ele>
        <time>2009-07-08T13:02:00Z</time>
      </trkpt>
      <trkpt lat="44.18405" lon="3.20496">
        <ele>569</ele>
        <time>2009-07-08T13:02:11Z</time>
      </trkpt>
      <trkpt lat="44.18365" lon="3.20477">
        <ele>570</ele>
        <time>2009-07-08T13:02:32Z</time>
      </trkpt>
      <trkpt lat="44.18362" lon="3.20476">
        <ele>571</ele>
        <time>2009-07-08T13:02:34Z</time>
      </trkpt>
      <trkpt lat="44.18333" lon="3.20473">
        <ele>574</ele>
        <time>2009-07-08T13:02:49Z</time>
      </trkpt>
      <trkpt lat="44.18308" lon="3.20472">
        <ele>576</ele>
        <time>2009-07-08T13:03:03Z</time>
      </trkpt>
      <trkpt lat="44.18276" lon="3.20462">
        <ele>579</ele>
        <time>2009-07-08T13:03:20Z</time>
      </trkpt>
      <trkpt lat="44.18238" lon="3.20455">
        <ele>581</ele>
        <time>2009-07-08T13:03:40Z</time>
      </trkpt>
      <trkpt lat="44.18196" lon="3.20458">
        <ele>583</ele>
        <time>2009-07-08T13:04:03Z</time>
      </trkpt>
      <trkpt lat="44.18162" lon="3.20451">
        <ele>586</ele>
        <time>2009-07-08T13:04:20Z</time>
      </trkpt>
      <trkpt lat="44.18154" lon="3.2045">
        <ele>587</ele>
        <time>2009-07-08T13:04:25Z</time>
      </trkpt>
      <trkpt lat="44.18126" lon="3.20417">
        <ele>590</ele>
        <time>2009-07-08T13:04:42Z</time>
      </trkpt>
      <trkpt lat="44.18101" lon="3.20374">
        <ele>592</ele>
        <time>2009-07-08T13:05:00Z</time>
      </trkpt>
      <trkpt lat="44.18083" lon="3.20353">
        <ele>594</ele>
        <time>2009-07-08T13:05:14Z</time>
      </trkpt>
      <trkpt lat="44.18081" lon="3.20353">
        <ele>595</ele>
        <time>2009-07-08T13:05:15Z</time>
      </trkpt>
      <trkpt lat="44.18086" lon="3.20378">
        <ele>594</ele>
        <time>2009-07-08T13:05:24Z</time>
      </trkpt>
      <trkpt lat="44.18108" lon="3.2041">
        <ele>596</ele>
        <time>2009-07-08T13:05:38Z</time>
      </trkpt>
      <trkpt lat="44.18127" lon="3.2045">
        <ele>599</ele>
        <time>2009-07-08T13:05:56Z</time>
      </trkpt>
      <trkpt lat="44.18158" lon="3.20477">
        <ele>602</ele>
        <time>2009-07-08T13:06:13Z</time>
      </trkpt>
      <trkpt lat="44.18177" lon="3.20488">
        <ele>605</ele>
        <time>2009-07-08T13:06:22Z</time>
      </trkpt>
      <trkpt lat="44.18212" lon="3.20505">
        <ele>606</ele>
        <time>2009-07-08T13:06:41Z</time>
      </trkpt>
      <trkpt lat="44.18238" lon="3.20509">
        <ele>609</ele>
        <time>2009-07-08T13:06:54Z</time>
      </trkpt>
      <trkpt lat="44.1824" lon="3.2051">
        <ele>609</ele>
        <time>2009-07-08T13:06:55Z</time>
      </trkpt>
      <trkpt lat="44.18276" lon="3.20529">
        <ele>611</ele>
        <time>2009-07-08T13:07:14Z</time>
      </trkpt>
      <trkpt lat="44.18292" lon="3.20536">
        <ele>614</ele>
        <time>2009-07-08T13:07:22Z</time>
      </trkpt>
      <trkpt lat="44.18328" lon="3.20554">
        <ele>617</ele>
        <time>2009-07-08T13:07:41Z</time>
      </trkpt>
      <trkpt lat="44.18361" lon="3.20582">
        <ele>618</ele>
        <time>2009-07-08T13:08:00Z</time>
      </trkpt>
      <trkpt lat="44.18386" lon="3.20624">
        <ele>620</ele>
        <time>2009-07-08T13:08:20Z</time>
      </trkpt>
      <trkpt lat="44.18408" lon="3.20667">
        <ele>623</ele>
        <time>2009-07-08T13:08:39Z</time>
      </trkpt>
      <trkpt lat="44.18428" lon="3.20697">
        <ele>625</ele>
        <time>2009-07-08T13:08:54Z</time>
      </trkpt>
      <trkpt lat="44.18443" lon="3.20728">
        <ele>628</ele>
        <time>2009-07-08T13:09:07Z</time>
      </trkpt>
      <trkpt lat="44.18448" lon="3.20775">
        <ele>632</ele>
        <time>2009-07-08T13:09:24Z</time>
      </trkpt>
      <trkpt lat="44.18433" lon="3.20806">
        <ele>634</ele>
        <time>2009-07-08T13:09:37Z</time>
      </trkpt>
      <trkpt lat="44.18431" lon="3.20793">
        <ele>635</ele>
        <time>2009-07-08T13:09:44Z</time>
      </trkpt>
      <trkpt lat="44.18438" lon="3.20748">
        <ele>636</ele>
        <time>2009-07-08T13:10:01Z</time>
      </trkpt>
      <trkpt lat="44.18419" lon="3.20713">
        <ele>640</ele>
        <time>2009-07-08T13:10:17Z</time>
      </trkpt>
      <trkpt lat="44.18391" lon="3.20683">
        <ele>643</ele>
        <time>2009-07-08T13:10:36Z</time>
      </trkpt>
      <trkpt lat="44.18365" lon="3.20653">
        <ele>644</ele>
        <time>2009-07-08T13:10:54Z</time>
      </trkpt>
      <trkpt lat="44.18352" lon="3.2064">
        <ele>647</ele>
        <time>2009-07-08T13:11:03Z</time>
      </trkpt>
      <trkpt lat="44.1832" lon="3.20618">
        <ele>650</ele>
        <time>2009-07-08T13:11:23Z</time>
      </trkpt>
      <trkpt lat="44.18282" lon="3.20611">
        <ele>654</ele>
        <time>2009-07-08T13:11:44Z</time>
      </trkpt>
      <trkpt lat="44.18259" lon="3.2061">
        <ele>657</ele>
        <time>2009-07-08T13:11:57Z</time>
      </trkpt>
      <trkpt lat="44.18222" lon="3.20604">
        <ele>660</ele>
        <time>2009-07-08T13:12:17Z</time>
      </trkpt>
      <trkpt lat="44.18191" lon="3.20601">
        <ele>663</ele>
        <time>2009-07-08T13:12:34Z</time>
      </trkpt>
      <trkpt lat="44.18156" lon="3.20581">
        <ele>666</ele>
        <time>2009-07-08T13:12:53Z</time>
      </trkpt>
      <trkpt lat="44.18124" lon="3.20568">
        <ele>670</ele>
        <time>2009-07-08T13:13:10Z</time>
      </trkpt>
      <trkpt lat="44.18122" lon="3.20567">
        <ele>669</ele>
        <time>2009-07-08T13:13:11Z</time>
      </trkpt>
      <trkpt lat="44.18089" lon="3.20548">
        <ele>672</ele>
        <time>2009-07-08T13:13:28Z</time>
      </trkpt>
      <trkpt lat="44.18056" lon="3.2053">
        <ele>676</ele>
        <time>2009-07-08T13:13:44Z</time>
      </trkpt>
      <trkpt lat="44.18048" lon="3.20526">
        <ele>677</ele>
        <time>2009-07-08T13:13:48Z</time>
      </trkpt>
      <trkpt lat="44.18027" lon="3.20501">
        <ele>680</ele>
        <time>2009-07-08T13:14:02Z</time>
      </trkpt>
      <trkpt lat="44.18012" lon="3.20486">
        <ele>680</ele>
        <time>2009-07-08T13:14:10Z</time>
      </trkpt>
      <trkpt lat="44.18003" lon="3.20492">
        <ele>681</ele>
        <time>2009-07-08T13:14:15Z</time>
      </trkpt>
      <trkpt lat="44.17968" lon="3.20523">
        <ele>684</ele>
        <time>2009-07-08T13:14:34Z</time>
      </trkpt>
      <trkpt lat="44.17934" lon="3.2055">
        <ele>686</ele>
        <time>2009-07-08T13:14:53Z</time>
      </trkpt>
      <trkpt lat="44.17919" lon="3.20566">
        <ele>689</ele>
        <time>2009-07-08T13:15:02Z</time>
      </trkpt>
      <trkpt lat="44.17887" lon="3.20606">
        <ele>691</ele>
        <time>2009-07-08T13:15:23Z</time>
      </trkpt>
      <trkpt lat="44.17883" lon="3.20611">
        <ele>693</ele>
        <time>2009-07-08T13:15:26Z</time>
      </trkpt>
      <trkpt lat="44.17856" lon="3.20647">
        <ele>695</ele>
        <time>2009-07-08T13:15:44Z</time>
      </trkpt>
      <trkpt lat="44.17845" lon="3.20697">
        <ele>698</ele>
        <time>2009-07-08T13:16:03Z</time>
      </trkpt>
      <trkpt lat="44.17859" lon="3.2074">
        <ele>699</ele>
        <time>2009-07-08T13:16:19Z</time>
      </trkpt>
      <trkpt lat="44.17835" lon="3.20762">
        <ele>701</ele>
        <time>2009-07-08T13:16:34Z</time>
      </trkpt>
      <trkpt lat="44.178" lon="3.20783">
        <ele>704</ele>
        <time>2009-07-08T13:16:52Z</time>
      </trkpt>
      <trkpt lat="44.17776" lon="3.20825">
        <ele>707</ele>
        <time>2009-07-08T13:17:09Z</time>
      </trkpt>
      <trkpt lat="44.1775" lon="3.2085">
        <ele>709</ele>
        <time>2009-07-08T13:17:24Z</time>
      </trkpt>
      <trkpt lat="44.17719" lon="3.20878">
        <ele>712</ele>
        <time>2009-07-08T13:17:41Z</time>
      </trkpt>
      <trkpt lat="44.1768" lon="3.20921">
        <ele>714</ele>
        <time>2009-07-08T13:18:04Z</time>
      </trkpt>
      <trkpt lat="44.17666" lon="3.20927">
        <ele>715</ele>
        <time>2009-07-08T13:18:15Z</time>
      </trkpt>
      <trkpt lat="44.17665" lon="3.20929">
        <ele>716</ele>
        <time>2009-07-08T13:18:31Z</time>
      </trkpt>
      <trkpt lat="44.17663" lon="3.20933">
        <ele>716</ele>
        <time>2009-07-08T13:18:37Z</time>
      </trkpt>
      <trkpt lat="44.1766" lon="3.20934">
        <ele>716</ele>
        <time>2009-07-08T13:18:53Z</time>
      </trkpt>
      <trkpt lat="44.17661" lon="3.20935">
        <ele>715</ele>
        <time>2009-07-08T13:22:05Z</time>
      </trkpt>
      <trkpt lat="44.1766" lon="3.20937">
        <ele>716</ele>
        <time>2009-07-08T13:23:33Z</time>
      </trkpt>
      <trkpt lat="44.1766" lon="3.20938">
        <ele>715</ele>
        <time>2009-07-08T13:23:53Z</time>
      </trkpt>
      <trkpt lat="44.17659" lon="3.20938">
        <ele>717</ele>
        <time>2009-07-08T13:25:33Z</time>
      </trkpt>
      <trkpt lat="44.17645" lon="3.2096">
        <ele>721</ele>
        <time>2009-07-08T13:25:45Z</time>
      </trkpt>
      <trkpt lat="44.17644" lon="3.20962">
        <ele>719</ele>
        <time>2009-07-08T13:25:46Z</time>
      </trkpt>
      <trkpt lat="44.17638" lon="3.20976">
        <ele>720</ele>
        <time>2009-07-08T13:25:52Z</time>
      </trkpt>
      <trkpt lat="44.17618" lon="3.21023">
        <ele>722</ele>
        <time>2009-07-08T13:26:11Z</time>
      </trkpt>
      <trkpt lat="44.17593" lon="3.21063">
        <ele>724</ele>
        <time>2009-07-08T13:26:26Z</time>
      </trkpt>
      <trkpt lat="44.17557" lon="3.21105">
        <ele>726</ele>
        <time>2009-07-08T13:26:45Z</time>
      </trkpt>
      <trkpt lat="44.17536" lon="3.2113">
        <ele>728</ele>
        <time>2009-07-08T13:26:56Z</time>
      </trkpt>
      <trkpt lat="44.17528" lon="3.21156">
        <ele>730</ele>
        <time>2009-07-08T13:27:05Z</time>
      </trkpt>
      <trkpt lat="44.17517" lon="3.21161">
        <ele>730</ele>
        <time>2009-07-08T13:27:11Z</time>
      </trkpt>
      <trkpt lat="44.17471" lon="3.21191">
        <ele>728</ele>
        <time>2009-07-08T13:27:28Z</time>
      </trkpt>
      <trkpt lat="44.17434" lon="3.21194">
        <ele>727</ele>
        <time>2009-07-08T13:27:38Z</time>
      </trkpt>
      <trkpt lat="44.17413" lon="3.21205">
        <ele>725</ele>
        <time>2009-07-08T13:27:43Z</time>
      </trkpt>
      <trkpt lat="44.17377" lon="3.21233">
        <ele>724</ele>
        <time>2009-07-08T13:27:55Z</time>
      </trkpt>
      <trkpt lat="44.17375" lon="3.21235">
        <ele>727</ele>
        <time>2009-07-08T13:28:06Z</time>
      </trkpt>
      <trkpt lat="44.17373" lon="3.21234">
        <ele>725</ele>
        <time>2009-07-08T13:28:11Z</time>
      </trkpt>
      <trkpt lat="44.1737" lon="3.21236">
        <ele>725</ele>
        <time>2009-07-08T13:28:21Z</time>
      </trkpt>
      <trkpt lat="44.17357" lon="3.21266">
        <ele>723</ele>
        <time>2009-07-08T13:28:34Z</time>
      </trkpt>
      <trkpt lat="44.17364" lon="3.21322">
        <ele>723</ele>
        <time>2009-07-08T13:28:48Z</time>
      </trkpt>
      <trkpt lat="44.17381" lon="3.21377">
        <ele>723</ele>
        <time>2009-07-08T13:29:02Z</time>
      </trkpt>
      <trkpt lat="44.17387" lon="3.21442">
        <ele>726</ele>
        <time>2009-07-08T13:29:19Z</time>
      </trkpt>
      <trkpt lat="44.17387" lon="3.21444">
        <ele>726</ele>
        <time>2009-07-08T13:29:20Z</time>
      </trkpt>
      <trkpt lat="44.17384" lon="3.21455">
        <ele>727</ele>
        <time>2009-07-08T13:29:24Z</time>
      </trkpt>
      <trkpt lat="44.17372" lon="3.21475">
        <ele>728</ele>
        <time>2009-07-08T13:29:36Z</time>
      </trkpt>
      <trkpt lat="44.17364" lon="3.21487">
        <ele>728</ele>
        <time>2009-07-08T13:29:48Z</time>
      </trkpt>
      <trkpt lat="44.17362" lon="3.21495">
        <ele>729</ele>
        <time>2009-07-08T13:29:59Z</time>
      </trkpt>
      <trkpt lat="44.17357" lon="3.21506">
        <ele>729</ele>
        <time>2009-07-08T13:30:11Z</time>
      </trkpt>
      <trkpt lat="44.17352" lon="3.21521">
        <ele>732</ele>
        <time>2009-07-08T13:30:18Z</time>
      </trkpt>
      <trkpt lat="44.17331" lon="3.21552">
        <ele>734</ele>
        <time>2009-07-08T13:30:33Z</time>
      </trkpt>
      <trkpt lat="44.17305" lon="3.21563">
        <ele>736</ele>
        <time>2009-07-08T13:30:46Z</time>
      </trkpt>
      <trkpt lat="44.17278" lon="3.21586">
        <ele>738</ele>
        <time>2009-07-08T13:31:02Z</time>
      </trkpt>
      <trkpt lat="44.17256" lon="3.21604">
        <ele>740</ele>
        <time>2009-07-08T13:31:16Z</time>
      </trkpt>
      <trkpt lat="44.17234" lon="3.21622">
        <ele>742</ele>
        <time>2009-07-08T13:31:30Z</time>
      </trkpt>
      <trkpt lat="44.17218" lon="3.21631">
        <ele>743</ele>
        <time>2009-07-08T13:31:40Z</time>
      </trkpt>
      <trkpt lat="44.17208" lon="3.2164">
        <ele>744</ele>
        <time>2009-07-08T13:31:47Z</time>
      </trkpt>
      <trkpt lat="44.1719" lon="3.21646">
        <ele>746</ele>
        <time>2009-07-08T13:31:57Z</time>
      </trkpt>
      <trkpt lat="44.17173" lon="3.21663">
        <ele>748</ele>
        <time>2009-07-08T13:32:09Z</time>
      </trkpt>
      <trkpt lat="44.17167" lon="3.21692">
        <ele>749</ele>
        <time>2009-07-08T13:32:21Z</time>
      </trkpt>
      <trkpt lat="44.17138" lon="3.21697">
        <ele>751</ele>
        <time>2009-07-08T13:32:37Z</time>
      </trkpt>
      <trkpt lat="44.17131" lon="3.21697">
        <ele>752</ele>
        <time>2009-07-08T13:32:41Z</time>
      </trkpt>
      <trkpt lat="44.17106" lon="3.2169">
        <ele>755</ele>
        <time>2009-07-08T13:32:56Z</time>
      </trkpt>
      <trkpt lat="44.17097" lon="3.21693">
        <ele>756</ele>
        <time>2009-07-08T13:33:02Z</time>
      </trkpt>
      <trkpt lat="44.1708" lon="3.21706">
        <ele>757</ele>
        <time>2009-07-08T13:33:15Z</time>
      </trkpt>
      <trkpt lat="44.17079" lon="3.21707">
        <ele>757</ele>
        <time>2009-07-08T13:33:18Z</time>
      </trkpt>
      <trkpt lat="44.17071" lon="3.21717">
        <ele>757</ele>
        <time>2009-07-08T13:33:28Z</time>
      </trkpt>
      <trkpt lat="44.17057" lon="3.21725">
        <ele>758</ele>
        <time>2009-07-08T13:33:36Z</time>
      </trkpt>
      <trkpt lat="44.17053" lon="3.21725">
        <ele>759</ele>
        <time>2009-07-08T13:33:39Z</time>
      </trkpt>
      <trkpt lat="44.17045" lon="3.21728">
        <ele>760</ele>
        <time>2009-07-08T13:33:43Z</time>
      </trkpt>
      <trkpt lat="44.17028" lon="3.21735">
        <ele>762</ele>
        <time>2009-07-08T13:33:58Z</time>
      </trkpt>
      <trkpt lat="44.17026" lon="3.21733">
        <ele>757</ele>
        <time>2009-07-08T13:34:18Z</time>
      </trkpt>
      <trkpt lat="44.17026" lon="3.21732">
        <ele>764</ele>
        <time>2009-07-08T13:34:19Z</time>
      </trkpt>
      <trkpt lat="44.17026" lon="3.21732">
        <ele>759</ele>
        <time>2009-07-08T13:34:20Z</time>
      </trkpt>
      <trkpt lat="44.17026" lon="3.21732">
        <ele>764</ele>
        <time>2009-07-08T13:34:22Z</time>
      </trkpt>
      <trkpt lat="44.17026" lon="3.21732">
        <ele>761</ele>
        <time>2009-07-08T13:34:23Z</time>
      </trkpt>
      <trkpt lat="44.17026" lon="3.21732">
        <ele>764</ele>
        <time>2009-07-08T13:34:27Z</time>
      </trkpt>
      <trkpt lat="44.17026" lon="3.21732">
        <ele>758</ele>
        <time>2009-07-08T13:34:28Z</time>
      </trkpt>
      <trkpt lat="44.17027" lon="3.21732">
        <ele>762</ele>
        <time>2009-07-08T13:34:30Z</time>
      </trkpt>
      <trkpt lat="44.17027" lon="3.21732">
        <ele>759</ele>
        <time>2009-07-08T13:34:34Z</time>
      </trkpt>
      <trkpt lat="44.17027" lon="3.21732">
        <ele>762</ele>
        <time>2009-07-08T13:34:35Z</time>
      </trkpt>
      <trkpt lat="44.17027" lon="3.21731">
        <ele>763</ele>
        <time>2009-07-08T13:35:32Z</time>
      </trkpt>
      <trkpt lat="44.17026" lon="3.21732">
        <ele>762</ele>
        <time>2009-07-08T13:36:02Z</time>
      </trkpt>
      <trkpt lat="44.17013" lon="3.21735">
        <ele>763</ele>
        <time>2009-07-08T13:36:11Z</time>
      </trkpt>
      <trkpt lat="44.17005" lon="3.21737">
        <ele>763</ele>
        <time>2009-07-08T13:36:24Z</time>
      </trkpt>
      <trkpt lat="44.17002" lon="3.21736">
        <ele>763</ele>
        <time>2009-07-08T13:36:30Z</time>
      </trkpt>
      <trkpt lat="44.17" lon="3.21737">
        <ele>762</ele>
        <time>2009-07-08T13:36:46Z</time>
      </trkpt>
      <trkpt lat="44.17001" lon="3.21736">
        <ele>762</ele>
        <time>2009-07-08T13:36:50Z</time>
      </trkpt>
      <trkpt lat="44.17007" lon="3.21742">
        <ele>763</ele>
        <time>2009-07-08T13:37:03Z</time>
      </trkpt>
      <trkpt lat="44.17022" lon="3.21744">
        <ele>764</ele>
        <time>2009-07-08T13:37:15Z</time>
      </trkpt>
      <trkpt lat="44.17028" lon="3.21741">
        <ele>764</ele>
        <time>2009-07-08T13:37:28Z</time>
      </trkpt>
      <trkpt lat="44.17034" lon="3.21742">
        <ele>765</ele>
        <time>2009-07-08T13:37:38Z</time>
      </trkpt>
      <trkpt lat="44.17039" lon="3.21742">
        <ele>764</ele>
        <time>2009-07-08T13:37:51Z</time>
      </trkpt>
      <trkpt lat="44.17046" lon="3.21744">
        <ele>765</ele>
        <time>2009-07-08T13:38:03Z</time>
      </trkpt>
      <trkpt lat="44.17061" lon="3.21742">
        <ele>766</ele>
        <time>2009-07-08T13:38:15Z</time>
      </trkpt>
      <trkpt lat="44.1707" lon="3.21743">
        <ele>767</ele>
        <time>2009-07-08T13:38:27Z</time>
      </trkpt>
      <trkpt lat="44.17083" lon="3.21739">
        <ele>768</ele>
        <time>2009-07-08T13:38:39Z</time>
      </trkpt>
      <trkpt lat="44.17083" lon="3.21739">
        <ele>768</ele>
        <time>2009-07-08T13:38:40Z</time>
      </trkpt>
      <trkpt lat="44.17077" lon="3.21744">
        <ele>766</ele>
        <time>2009-07-08T13:38:54Z</time>
      </trkpt>
      <trkpt lat="44.17075" lon="3.21748">
        <ele>768</ele>
        <time>2009-07-08T13:39:12Z</time>
      </trkpt>
      <trkpt lat="44.17071" lon="3.2175">
        <ele>769</ele>
        <time>2009-07-08T13:39:26Z</time>
      </trkpt>
      <trkpt lat="44.17046" lon="3.21765">
        <ele>772</ele>
        <time>2009-07-08T13:39:43Z</time>
      </trkpt>
      <trkpt lat="44.17044" lon="3.21767">
        <ele>772</ele>
        <time>2009-07-08T13:39:46Z</time>
      </trkpt>
      <trkpt lat="44.1703" lon="3.21775">
        <ele>773</ele>
        <time>2009-07-08T13:39:55Z</time>
      </trkpt>
      <trkpt lat="44.17014" lon="3.21785">
        <ele>774</ele>
        <time>2009-07-08T13:40:04Z</time>
      </trkpt>
      <trkpt lat="44.16997" lon="3.2178">
        <ele>775</ele>
        <time>2009-07-08T13:40:13Z</time>
      </trkpt>
      <trkpt lat="44.1699" lon="3.21773">
        <ele>775</ele>
        <time>2009-07-08T13:40:19Z</time>
      </trkpt>
      <trkpt lat="44.1697" lon="3.21766">
        <ele>777</ele>
        <time>2009-07-08T13:40:33Z</time>
      </trkpt>
      <trkpt lat="44.16946" lon="3.21774">
        <ele>779</ele>
        <time>2009-07-08T13:40:48Z</time>
      </trkpt>
      <trkpt lat="44.16923" lon="3.21778">
        <ele>782</ele>
        <time>2009-07-08T13:41:04Z</time>
      </trkpt>
      <trkpt lat="44.16913" lon="3.21785">
        <ele>784</ele>
        <time>2009-07-08T13:41:14Z</time>
      </trkpt>
      <trkpt lat="44.16901" lon="3.21795">
        <ele>784</ele>
        <time>2009-07-08T13:41:28Z</time>
      </trkpt>
      <trkpt lat="44.16899" lon="3.21798">
        <ele>785</ele>
        <time>2009-07-08T13:41:54Z</time>
      </trkpt>
      <trkpt lat="44.16898" lon="3.218">
        <ele>786</ele>
        <time>2009-07-08T13:42:08Z</time>
      </trkpt>
      <trkpt lat="44.16883" lon="3.2181">
        <ele>787</ele>
        <time>2009-07-08T13:42:19Z</time>
      </trkpt>
      <trkpt lat="44.16875" lon="3.21816">
        <ele>787</ele>
        <time>2009-07-08T13:42:24Z</time>
      </trkpt>
      <trkpt lat="44.16857" lon="3.21826">
        <ele>789</ele>
        <time>2009-07-08T13:42:35Z</time>
      </trkpt>
      <trkpt lat="44.16834" lon="3.21842">
        <ele>791</ele>
        <time>2009-07-08T13:42:49Z</time>
      </trkpt>
      <trkpt lat="44.16822" lon="3.2185">
        <ele>793</ele>
        <time>2009-07-08T13:42:56Z</time>
      </trkpt>
      <trkpt lat="44.16818" lon="3.21864">
        <ele>794</ele>
        <time>2009-07-08T13:43:09Z</time>
      </trkpt>
      <trkpt lat="44.16816" lon="3.2187">
        <ele>795</ele>
        <time>2009-07-08T13:43:24Z</time>
      </trkpt>
      <trkpt lat="44.16815" lon="3.21871">
        <ele>795</ele>
        <time>2009-07-08T13:44:27Z</time>
      </trkpt>
      <trkpt lat="44.16797" lon="3.21881">
        <ele>793</ele>
        <time>2009-07-08T13:44:37Z</time>
      </trkpt>
      <trkpt lat="44.16782" lon="3.21883">
        <ele>792</ele>
        <time>2009-07-08T13:44:41Z</time>
      </trkpt>
      <trkpt lat="44.16773" lon="3.21892">
        <ele>791</ele>
        <time>2009-07-08T13:44:45Z</time>
      </trkpt>
      <trkpt lat="44.16767" lon="3.21893">
        <ele>790</ele>
        <time>2009-07-08T13:44:47Z</time>
      </trkpt>
      <trkpt lat="44.16753" lon="3.21904">
        <ele>788</ele>
        <time>2009-07-08T13:44:53Z</time>
      </trkpt>
      <trkpt lat="44.16741" lon="3.21909">
        <ele>787</ele>
        <time>2009-07-08T13:44:57Z</time>
      </trkpt>
      <trkpt lat="44.16732" lon="3.21911">
        <ele>785</ele>
        <time>2009-07-08T13:45:01Z</time>
      </trkpt>
      <trkpt lat="44.1669" lon="3.21916">
        <ele>782</ele>
        <time>2009-07-08T13:45:13Z</time>
      </trkpt>
      <trkpt lat="44.16658" lon="3.21923">
        <ele>782</ele>
        <time>2009-07-08T13:45:23Z</time>
      </trkpt>
      <trkpt lat="44.16614" lon="3.21945">
        <ele>782</ele>
        <time>2009-07-08T13:45:39Z</time>
      </trkpt>
      <trkpt lat="44.16574" lon="3.21958">
        <ele>783</ele>
        <time>2009-07-08T13:45:53Z</time>
      </trkpt>
      <trkpt lat="44.16571" lon="3.21959">
        <ele>784</ele>
        <time>2009-07-08T13:45:54Z</time>
      </trkpt>
      <trkpt lat="44.16542" lon="3.21955">
        <ele>787</ele>
        <time>2009-07-08T13:46:05Z</time>
      </trkpt>
      <trkpt lat="44.16506" lon="3.21978">
        <ele>789</ele>
        <time>2009-07-08T13:46:21Z</time>
      </trkpt>
      <trkpt lat="44.16476" lon="3.21979">
        <ele>790</ele>
        <time>2009-07-08T13:46:33Z</time>
      </trkpt>
      <trkpt lat="44.1644" lon="3.21985">
        <ele>790</ele>
        <time>2009-07-08T13:46:45Z</time>
      </trkpt>
      <trkpt lat="44.16397" lon="3.21988">
        <ele>791</ele>
        <time>2009-07-08T13:47:00Z</time>
      </trkpt>
      <trkpt lat="44.16367" lon="3.21958">
        <ele>793</ele>
        <time>2009-07-08T13:47:13Z</time>
      </trkpt>
      <trkpt lat="44.16342" lon="3.21979">
        <ele>796</ele>
        <time>2009-07-08T13:47:24Z</time>
      </trkpt>
      <trkpt lat="44.16332" lon="3.21978">
        <ele>796</ele>
        <time>2009-07-08T13:47:29Z</time>
      </trkpt>
      <trkpt lat="44.16328" lon="3.21982">
        <ele>796</ele>
        <time>2009-07-08T13:47:37Z</time>
      </trkpt>
      <trkpt lat="44.16327" lon="3.21996">
        <ele>796</ele>
        <time>2009-07-08T13:47:49Z</time>
      </trkpt>
      <trkpt lat="44.16328" lon="3.21996">
        <ele>797</ele>
        <time>2009-07-08T13:48:14Z</time>
      </trkpt>
      <trkpt lat="44.16324" lon="3.21997">
        <ele>797</ele>
        <time>2009-07-08T14:04:30Z</time>
      </trkpt>
      <trkpt lat="44.16323" lon="3.21994">
        <ele>797</ele>
        <time>2009-07-08T14:04:44Z</time>
      </trkpt>
      <trkpt lat="44.16321" lon="3.2199">
        <ele>795</ele>
        <time>2009-07-08T14:04:49Z</time>
      </trkpt>
      <trkpt lat="44.16322" lon="3.21987">
        <ele>796</ele>
        <time>2009-07-08T14:05:12Z</time>
      </trkpt>
      <trkpt lat="44.16323" lon="3.21985">
        <ele>796</ele>
        <time>2009-07-08T14:05:23Z</time>
      </trkpt>
      <trkpt lat="44.16325" lon="3.21936">
        <ele>795</ele>
        <time>2009-07-08T14:05:37Z</time>
      </trkpt>
      <trkpt lat="44.16326" lon="3.21933">
        <ele>795</ele>
        <time>2009-07-08T14:05:50Z</time>
      </trkpt>
      <trkpt lat="44.16321" lon="3.21927">
        <ele>795</ele>
        <time>2009-07-08T14:06:01Z</time>
      </trkpt>
      <trkpt lat="44.16305" lon="3.21902">
        <ele>798</ele>
        <time>2009-07-08T14:06:12Z</time>
      </trkpt>
      <trkpt lat="44.16284" lon="3.21868">
        <ele>799</ele>
        <time>2009-07-08T14:06:31Z</time>
      </trkpt>
      <trkpt lat="44.16272" lon="3.21814">
        <ele>799</ele>
        <time>2009-07-08T14:06:48Z</time>
      </trkpt>
      <trkpt lat="44.16254" lon="3.21775">
        <ele>799</ele>
        <time>2009-07-08T14:07:00Z</time>
      </trkpt>
      <trkpt lat="44.16256" lon="3.21751">
        <ele>798</ele>
        <time>2009-07-08T14:07:08Z</time>
      </trkpt>
      <trkpt lat="44.16256" lon="3.21743">
        <ele>797</ele>
        <time>2009-07-08T14:07:10Z</time>
      </trkpt>
      <trkpt lat="44.16249" lon="3.21727">
        <ele>794</ele>
        <time>2009-07-08T14:07:14Z</time>
      </trkpt>
      <trkpt lat="44.16244" lon="3.21718">
        <ele>793</ele>
        <time>2009-07-08T14:07:16Z</time>
      </trkpt>
      <trkpt lat="44.16234" lon="3.21688">
        <ele>790</ele>
        <time>2009-07-08T14:07:23Z</time>
      </trkpt>
      <trkpt lat="44.1623" lon="3.21666">
        <ele>789</ele>
        <time>2009-07-08T14:07:27Z</time>
      </trkpt>
      <trkpt lat="44.16223" lon="3.21623">
        <ele>786</ele>
        <time>2009-07-08T14:07:36Z</time>
      </trkpt>
      <trkpt lat="44.16224" lon="3.21616">
        <ele>786</ele>
        <time>2009-07-08T14:07:39Z</time>
      </trkpt>
      <trkpt lat="44.16221" lon="3.21594">
        <ele>783</ele>
        <time>2009-07-08T14:07:44Z</time>
      </trkpt>
      <trkpt lat="44.1622" lon="3.2159">
        <ele>784</ele>
        <time>2009-07-08T14:07:45Z</time>
      </trkpt>
      <trkpt lat="44.16211" lon="3.21589">
        <ele>783</ele>
        <time>2009-07-08T14:07:50Z</time>
      </trkpt>
      <trkpt lat="44.16173" lon="3.21596">
        <ele>784</ele>
        <time>2009-07-08T14:08:03Z</time>
      </trkpt>
      <trkpt lat="44.16138" lon="3.21617">
        <ele>783</ele>
        <time>2009-07-08T14:08:15Z</time>
      </trkpt>
      <trkpt lat="44.16112" lon="3.21631">
        <ele>782</ele>
        <time>2009-07-08T14:08:23Z</time>
      </trkpt>
      <trkpt lat="44.16096" lon="3.21621">
        <ele>781</ele>
        <time>2009-07-08T14:08:31Z</time>
      </trkpt>
      <trkpt lat="44.16089" lon="3.21625">
        <ele>780</ele>
        <time>2009-07-08T14:08:34Z</time>
      </trkpt>
      <trkpt lat="44.16044" lon="3.21655">
        <ele>779</ele>
        <time>2009-07-08T14:08:47Z</time>
      </trkpt>
      <trkpt lat="44.16014" lon="3.21673">
        <ele>780</ele>
        <time>2009-07-08T14:08:56Z</time>
      </trkpt>
      <trkpt lat="44.16002" lon="3.21668">
        <ele>780</ele>
        <time>2009-07-08T14:09:01Z</time>
      </trkpt>
      <trkpt lat="44.15995" lon="3.21632">
        <ele>780</ele>
        <time>2009-07-08T14:09:13Z</time>
      </trkpt>
      <trkpt lat="44.15968" lon="3.21629">
        <ele>779</ele>
        <time>2009-07-08T14:09:23Z</time>
      </trkpt>
      <trkpt lat="44.1596" lon="3.21626">
        <ele>779</ele>
        <time>2009-07-08T14:09:26Z</time>
      </trkpt>
      <trkpt lat="44.1596" lon="3.21599">
        <ele>778</ele>
        <time>2009-07-08T14:09:36Z</time>
      </trkpt>
      <trkpt lat="44.1596" lon="3.21584">
        <ele>777</ele>
        <time>2009-07-08T14:09:39Z</time>
      </trkpt>
      <trkpt lat="44.15961" lon="3.21573">
        <ele>776</ele>
        <time>2009-07-08T14:09:41Z</time>
      </trkpt>
      <trkpt lat="44.15972" lon="3.2154">
        <ele>774</ele>
        <time>2009-07-08T14:09:49Z</time>
      </trkpt>
      <trkpt lat="44.1597" lon="3.21526">
        <ele>772</ele>
        <time>2009-07-08T14:09:52Z</time>
      </trkpt>
      <trkpt lat="44.15965" lon="3.21514">
        <ele>771</ele>
        <time>2009-07-08T14:09:54Z</time>
      </trkpt>
      <trkpt lat="44.15959" lon="3.21499">
        <ele>767</ele>
        <time>2009-07-08T14:09:56Z</time>
      </trkpt>
      <trkpt lat="44.15952" lon="3.21479">
        <ele>765</ele>
        <time>2009-07-08T14:09:58Z</time>
      </trkpt>
      <trkpt lat="44.15936" lon="3.21439">
        <ele>760</ele>
        <time>2009-07-08T14:10:02Z</time>
      </trkpt>
      <trkpt lat="44.1592" lon="3.21401">
        <ele>757</ele>
        <time>2009-07-08T14:10:06Z</time>
      </trkpt>
      <trkpt lat="44.15914" lon="3.2138">
        <ele>756</ele>
        <time>2009-07-08T14:10:13Z</time>
      </trkpt>
      <trkpt lat="44.15901" lon="3.21367">
        <ele>754</ele>
        <time>2009-07-08T14:10:20Z</time>
      </trkpt>
      <trkpt lat="44.15897" lon="3.21363">
        <ele>754</ele>
        <time>2009-07-08T14:10:22Z</time>
      </trkpt>
      <trkpt lat="44.15881" lon="3.21362">
        <ele>751</ele>
        <time>2009-07-08T14:10:31Z</time>
      </trkpt>
      <trkpt lat="44.15879" lon="3.21364">
        <ele>751</ele>
        <time>2009-07-08T14:10:33Z</time>
      </trkpt>
      <trkpt lat="44.15876" lon="3.2137">
        <ele>751</ele>
        <time>2009-07-08T14:10:36Z</time>
      </trkpt>
      <trkpt lat="44.15864" lon="3.21373">
        <ele>747</ele>
        <time>2009-07-08T14:10:42Z</time>
      </trkpt>
      <trkpt lat="44.15858" lon="3.21364">
        <ele>747</ele>
        <time>2009-07-08T14:10:46Z</time>
      </trkpt>
      <trkpt lat="44.15856" lon="3.21354">
        <ele>747</ele>
        <time>2009-07-08T14:10:49Z</time>
      </trkpt>
      <trkpt lat="44.15848" lon="3.21327">
        <ele>743</ele>
        <time>2009-07-08T14:10:57Z</time>
      </trkpt>
      <trkpt lat="44.15847" lon="3.21321">
        <ele>743</ele>
        <time>2009-07-08T14:10:59Z</time>
      </trkpt>
      <trkpt lat="44.15843" lon="3.2132">
        <ele>742</ele>
        <time>2009-07-08T14:11:10Z</time>
      </trkpt>
      <trkpt lat="44.15837" lon="3.21323">
        <ele>741</ele>
        <time>2009-07-08T14:11:13Z</time>
      </trkpt>
      <trkpt lat="44.1583" lon="3.21305">
        <ele>740</ele>
        <time>2009-07-08T14:11:21Z</time>
      </trkpt>
      <trkpt lat="44.15828" lon="3.21302">
        <ele>738</ele>
        <time>2009-07-08T14:11:31Z</time>
      </trkpt>
      <trkpt lat="44.15825" lon="3.21301">
        <ele>738</ele>
        <time>2009-07-08T14:11:42Z</time>
      </trkpt>
      <trkpt lat="44.1582" lon="3.21303">
        <ele>738</ele>
        <time>2009-07-08T14:11:53Z</time>
      </trkpt>
      <trkpt lat="44.1582" lon="3.21303">
        <ele>737</ele>
        <time>2009-07-08T14:11:56Z</time>
      </trkpt>
      <trkpt lat="44.15812" lon="3.21337">
        <ele>736</ele>
        <time>2009-07-08T14:12:08Z</time>
      </trkpt>
      <trkpt lat="44.15801" lon="3.21401">
        <ele>732</ele>
        <time>2009-07-08T14:12:18Z</time>
      </trkpt>
      <trkpt lat="44.15793" lon="3.21445">
        <ele>731</ele>
        <time>2009-07-08T14:12:24Z</time>
      </trkpt>
      <trkpt lat="44.15788" lon="3.2146">
        <ele>730</ele>
        <time>2009-07-08T14:12:26Z</time>
      </trkpt>
      <trkpt lat="44.15776" lon="3.21479">
        <ele>728</ele>
        <time>2009-07-08T14:12:29Z</time>
      </trkpt>
      <trkpt lat="44.15761" lon="3.21496">
        <ele>727</ele>
        <time>2009-07-08T14:12:32Z</time>
      </trkpt>
      <trkpt lat="44.15741" lon="3.21527">
        <ele>726</ele>
        <time>2009-07-08T14:12:36Z</time>
      </trkpt>
      <trkpt lat="44.15731" lon="3.21556">
        <ele>724</ele>
        <time>2009-07-08T14:12:39Z</time>
      </trkpt>
      <trkpt lat="44.15717" lon="3.21609">
        <ele>722</ele>
        <time>2009-07-08T14:12:44Z</time>
      </trkpt>
      <trkpt lat="44.15723" lon="3.217">
        <ele>720</ele>
        <time>2009-07-08T14:12:52Z</time>
      </trkpt>
      <trkpt lat="44.15726" lon="3.21709">
        <ele>720</ele>
        <time>2009-07-08T14:12:53Z</time>
      </trkpt>
      <trkpt lat="44.15709" lon="3.21742">
        <ele>717</ele>
        <time>2009-07-08T14:12:58Z</time>
      </trkpt>
      <trkpt lat="44.15702" lon="3.21743">
        <ele>717</ele>
        <time>2009-07-08T14:12:59Z</time>
      </trkpt>
      <trkpt lat="44.15671" lon="3.21746">
        <ele>713</ele>
        <time>2009-07-08T14:13:03Z</time>
      </trkpt>
      <trkpt lat="44.15644" lon="3.2176">
        <ele>713</ele>
        <time>2009-07-08T14:13:07Z</time>
      </trkpt>
      <trkpt lat="44.15636" lon="3.2177">
        <ele>712</ele>
        <time>2009-07-08T14:13:14Z</time>
      </trkpt>
      <trkpt lat="44.15637" lon="3.21771">
        <ele>713</ele>
        <time>2009-07-08T14:13:15Z</time>
      </trkpt>
      <trkpt lat="44.15646" lon="3.21769">
        <ele>711</ele>
        <time>2009-07-08T14:13:19Z</time>
      </trkpt>
      <trkpt lat="44.15668" lon="3.21765">
        <ele>709</ele>
        <time>2009-07-08T14:13:31Z</time>
      </trkpt>
      <trkpt lat="44.15676" lon="3.21761">
        <ele>707</ele>
        <time>2009-07-08T14:14:11Z</time>
      </trkpt>
      <trkpt lat="44.15676" lon="3.21761">
        <ele>709</ele>
        <time>2009-07-08T14:14:13Z</time>
      </trkpt>
      <trkpt lat="44.15673" lon="3.21765">
        <ele>709</ele>
        <time>2009-07-08T14:14:24Z</time>
      </trkpt>
      <trkpt lat="44.15691" lon="3.21765">
        <ele>706</ele>
        <time>2009-07-08T14:14:30Z</time>
      </trkpt>
      <trkpt lat="44.1571" lon="3.21795">
        <ele>705</ele>
        <time>2009-07-08T14:14:38Z</time>
      </trkpt>
      <trkpt lat="44.15707" lon="3.21799">
        <ele>705</ele>
        <time>2009-07-08T14:14:39Z</time>
      </trkpt>
      <trkpt lat="44.15694" lon="3.21847">
        <ele>707</ele>
        <time>2009-07-08T14:14:51Z</time>
      </trkpt>
      <trkpt lat="44.15724" lon="3.21902">
        <ele>708</ele>
        <time>2009-07-08T14:15:08Z</time>
      </trkpt>
      <trkpt lat="44.15754" lon="3.21931">
        <ele>711</ele>
        <time>2009-07-08T14:15:21Z</time>
      </trkpt>
      <trkpt lat="44.15759" lon="3.21954">
        <ele>714</ele>
        <time>2009-07-08T14:15:30Z</time>
      </trkpt>
      <trkpt lat="44.15759" lon="3.21959">
        <ele>714</ele>
        <time>2009-07-08T14:15:32Z</time>
      </trkpt>
      <trkpt lat="44.15752" lon="3.2196">
        <ele>715</ele>
        <time>2009-07-08T14:15:37Z</time>
      </trkpt>
      <trkpt lat="44.15746" lon="3.21948">
        <ele>717</ele>
        <time>2009-07-08T14:15:43Z</time>
      </trkpt>
      <trkpt lat="44.15718" lon="3.21923">
        <ele>720</ele>
        <time>2009-07-08T14:16:00Z</time>
      </trkpt>
      <trkpt lat="44.15685" lon="3.21903">
        <ele>723</ele>
        <time>2009-07-08T14:16:16Z</time>
      </trkpt>
      <trkpt lat="44.15673" lon="3.2189">
        <ele>725</ele>
        <time>2009-07-08T14:16:22Z</time>
      </trkpt>
      <trkpt lat="44.15648" lon="3.21877">
        <ele>728</ele>
        <time>2009-07-08T14:16:36Z</time>
      </trkpt>
      <trkpt lat="44.15629" lon="3.21883">
        <ele>731</ele>
        <time>2009-07-08T14:16:45Z</time>
      </trkpt>
      <trkpt lat="44.15587" lon="3.21895">
        <ele>734</ele>
        <time>2009-07-08T14:17:05Z</time>
      </trkpt>
      <trkpt lat="44.15543" lon="3.21903">
        <ele>736</ele>
        <time>2009-07-08T14:17:24Z</time>
      </trkpt>
      <trkpt lat="44.15495" lon="3.21898">
        <ele>739</ele>
        <time>2009-07-08T14:17:42Z</time>
      </trkpt>
      <trkpt lat="44.15457" lon="3.21902">
        <ele>742</ele>
        <time>2009-07-08T14:17:56Z</time>
      </trkpt>
      <trkpt lat="44.15447" lon="3.21908">
        <ele>744</ele>
        <time>2009-07-08T14:18:01Z</time>
      </trkpt>
      <trkpt lat="44.15427" lon="3.21921">
        <ele>747</ele>
        <time>2009-07-08T14:18:12Z</time>
      </trkpt>
      <trkpt lat="44.15423" lon="3.21923">
        <ele>748</ele>
        <time>2009-07-08T14:18:14Z</time>
      </trkpt>
      <trkpt lat="44.15407" lon="3.21932">
        <ele>752</ele>
        <time>2009-07-08T14:18:23Z</time>
      </trkpt>
      <trkpt lat="44.15406" lon="3.21933">
        <ele>752</ele>
        <time>2009-07-08T14:18:24Z</time>
      </trkpt>
      <trkpt lat="44.1538" lon="3.2197">
        <ele>754</ele>
        <time>2009-07-08T14:18:42Z</time>
      </trkpt>
      <trkpt lat="44.15353" lon="3.22002">
        <ele>751</ele>
        <time>2009-07-08T14:18:55Z</time>
      </trkpt>
      <trkpt lat="44.15341" lon="3.22013">
        <ele>751</ele>
        <time>2009-07-08T14:18:58Z</time>
      </trkpt>
      <trkpt lat="44.15321" lon="3.22068">
        <ele>752</ele>
        <time>2009-07-08T14:19:10Z</time>
      </trkpt>
      <trkpt lat="44.1532" lon="3.22104">
        <ele>755</ele>
        <time>2009-07-08T14:19:20Z</time>
      </trkpt>
      <trkpt lat="44.15308" lon="3.22158">
        <ele>757</ele>
        <time>2009-07-08T14:19:35Z</time>
      </trkpt>
      <trkpt lat="44.15305" lon="3.22206">
        <ele>759</ele>
        <time>2009-07-08T14:19:48Z</time>
      </trkpt>
      <trkpt lat="44.1532" lon="3.22231">
        <ele>762</ele>
        <time>2009-07-08T14:19:57Z</time>
      </trkpt>
      <trkpt lat="44.15336" lon="3.22241">
        <ele>763</ele>
        <time>2009-07-08T14:20:04Z</time>
      </trkpt>
      <trkpt lat="44.15348" lon="3.22249">
        <ele>765</ele>
        <time>2009-07-08T14:20:09Z</time>
      </trkpt>
      <trkpt lat="44.15393" lon="3.22279">
        <ele>769</ele>
        <time>2009-07-08T14:20:27Z</time>
      </trkpt>
      <trkpt lat="44.15395" lon="3.22281">
        <ele>769</ele>
        <time>2009-07-08T14:20:28Z</time>
      </trkpt>
      <trkpt lat="44.15403" lon="3.22291">
        <ele>769</ele>
        <time>2009-07-08T14:20:37Z</time>
      </trkpt>
      <trkpt lat="44.15413" lon="3.22306">
        <ele>768</ele>
        <time>2009-07-08T14:20:48Z</time>
      </trkpt>
      <trkpt lat="44.15412" lon="3.22305">
        <ele>769</ele>
        <time>2009-07-08T14:21:27Z</time>
      </trkpt>
      <trkpt lat="44.15411" lon="3.22306">
        <ele>769</ele>
        <time>2009-07-08T14:21:49Z</time>
      </trkpt>
      <trkpt lat="44.15411" lon="3.22306">
        <ele>768</ele>
        <time>2009-07-08T14:22:03Z</time>
      </trkpt>
      <trkpt lat="44.15441" lon="3.22338">
        <ele>766</ele>
        <time>2009-07-08T14:22:14Z</time>
      </trkpt>
      <trkpt lat="44.15478" lon="3.22359">
        <ele>769</ele>
        <time>2009-07-08T14:22:27Z</time>
      </trkpt>
      <trkpt lat="44.15494" lon="3.22367">
        <ele>773</ele>
        <time>2009-07-08T14:22:35Z</time>
      </trkpt>
      <trkpt lat="44.15508" lon="3.22377">
        <ele>775</ele>
        <time>2009-07-08T14:22:43Z</time>
      </trkpt>
      <trkpt lat="44.15513" lon="3.22381">
        <ele>777</ele>
        <time>2009-07-08T14:22:46Z</time>
      </trkpt>
      <trkpt lat="44.15534" lon="3.22408">
        <ele>780</ele>
        <time>2009-07-08T14:22:59Z</time>
      </trkpt>
      <trkpt lat="44.15566" lon="3.22451">
        <ele>783</ele>
        <time>2009-07-08T14:23:19Z</time>
      </trkpt>
      <trkpt lat="44.1558" lon="3.22477">
        <ele>787</ele>
        <time>2009-07-08T14:23:29Z</time>
      </trkpt>
      <trkpt lat="44.15604" lon="3.22525">
        <ele>787</ele>
        <time>2009-07-08T14:23:45Z</time>
      </trkpt>
      <trkpt lat="44.15619" lon="3.22547">
        <ele>790</ele>
        <time>2009-07-08T14:23:55Z</time>
      </trkpt>
      <trkpt lat="44.15644" lon="3.22583">
        <ele>794</ele>
        <time>2009-07-08T14:24:11Z</time>
      </trkpt>
      <trkpt lat="44.15652" lon="3.22589">
        <ele>793</ele>
        <time>2009-07-08T14:24:17Z</time>
      </trkpt>
      <trkpt lat="44.15653" lon="3.226">
        <ele>794</ele>
        <time>2009-07-08T14:24:30Z</time>
      </trkpt>
      <trkpt lat="44.15661" lon="3.22627">
        <ele>791</ele>
        <time>2009-07-08T14:24:47Z</time>
      </trkpt>
      <trkpt lat="44.15669" lon="3.22661">
        <ele>789</ele>
        <time>2009-07-08T14:24:52Z</time>
      </trkpt>
      <trkpt lat="44.15659" lon="3.22701">
        <ele>787</ele>
        <time>2009-07-08T14:24:57Z</time>
      </trkpt>
      <trkpt lat="44.15644" lon="3.22722">
        <ele>784</ele>
        <time>2009-07-08T14:25:00Z</time>
      </trkpt>
      <trkpt lat="44.15631" lon="3.22758">
        <ele>781</ele>
        <time>2009-07-08T14:25:04Z</time>
      </trkpt>
      <trkpt lat="44.15622" lon="3.22791">
        <ele>778</ele>
        <time>2009-07-08T14:25:07Z</time>
      </trkpt>
      <trkpt lat="44.15615" lon="3.22814">
        <ele>776</ele>
        <time>2009-07-08T14:25:09Z</time>
      </trkpt>
      <trkpt lat="44.15601" lon="3.22847">
        <ele>774</ele>
        <time>2009-07-08T14:25:12Z</time>
      </trkpt>
      <trkpt lat="44.15592" lon="3.22873">
        <ele>772</ele>
        <time>2009-07-08T14:25:15Z</time>
      </trkpt>
      <trkpt lat="44.15589" lon="3.22893">
        <ele>768</ele>
        <time>2009-07-08T14:25:17Z</time>
      </trkpt>
      <trkpt lat="44.15591" lon="3.22929">
        <ele>765</ele>
        <time>2009-07-08T14:25:21Z</time>
      </trkpt>
      <trkpt lat="44.156" lon="3.22967">
        <ele>764</ele>
        <time>2009-07-08T14:25:25Z</time>
      </trkpt>
      <trkpt lat="44.15573" lon="3.23025">
        <ele>764</ele>
        <time>2009-07-08T14:25:34Z</time>
      </trkpt>
      <trkpt lat="44.15572" lon="3.23031">
        <ele>766</ele>
        <time>2009-07-08T14:25:35Z</time>
      </trkpt>
      <trkpt lat="44.15559" lon="3.23059">
        <ele>767</ele>
        <time>2009-07-08T14:25:41Z</time>
      </trkpt>
      <trkpt lat="44.15534" lon="3.23067">
        <ele>768</ele>
        <time>2009-07-08T14:25:53Z</time>
      </trkpt>
      <trkpt lat="44.1552" lon="3.23065">
        <ele>769</ele>
        <time>2009-07-08T14:26:00Z</time>
      </trkpt>
      <trkpt lat="44.15516" lon="3.23065">
        <ele>770</ele>
        <time>2009-07-08T14:26:02Z</time>
      </trkpt>
      <trkpt lat="44.1547" lon="3.23063">
        <ele>772</ele>
        <time>2009-07-08T14:26:17Z</time>
      </trkpt>
      <trkpt lat="44.15436" lon="3.23071">
        <ele>771</ele>
        <time>2009-07-08T14:26:26Z</time>
      </trkpt>
      <trkpt lat="44.15418" lon="3.23071">
        <ele>770</ele>
        <time>2009-07-08T14:26:30Z</time>
      </trkpt>
      <trkpt lat="44.15407" lon="3.23072">
        <ele>771</ele>
        <time>2009-07-08T14:26:32Z</time>
      </trkpt>
      <trkpt lat="44.15391" lon="3.23076">
        <ele>770</ele>
        <time>2009-07-08T14:26:35Z</time>
      </trkpt>
      <trkpt lat="44.15369" lon="3.23074">
        <ele>769</ele>
        <time>2009-07-08T14:26:39Z</time>
      </trkpt>
      <trkpt lat="44.15319" lon="3.2307">
        <ele>767</ele>
        <time>2009-07-08T14:26:48Z</time>
      </trkpt>
      <trkpt lat="44.15302" lon="3.23076">
        <ele>765</ele>
        <time>2009-07-08T14:26:51Z</time>
      </trkpt>
      <trkpt lat="44.15251" lon="3.23116">
        <ele>762</ele>
        <time>2009-07-08T14:26:59Z</time>
      </trkpt>
      <trkpt lat="44.15229" lon="3.23134">
        <ele>760</ele>
        <time>2009-07-08T14:27:02Z</time>
      </trkpt>
      <trkpt lat="44.15173" lon="3.23181">
        <ele>758</ele>
        <time>2009-07-08T14:27:10Z</time>
      </trkpt>
      <trkpt lat="44.15121" lon="3.23269">
        <ele>756</ele>
        <time>2009-07-08T14:27:22Z</time>
      </trkpt>
      <trkpt lat="44.15097" lon="3.23314">
        <ele>754</ele>
        <time>2009-07-08T14:27:28Z</time>
      </trkpt>
      <trkpt lat="44.15084" lon="3.23356">
        <ele>753</ele>
        <time>2009-07-08T14:27:33Z</time>
      </trkpt>
      <trkpt lat="44.15079" lon="3.2337">
        <ele>753</ele>
        <time>2009-07-08T14:27:35Z</time>
      </trkpt>
      <trkpt lat="44.15078" lon="3.23378">
        <ele>753</ele>
        <time>2009-07-08T14:27:49Z</time>
      </trkpt>
      <trkpt lat="44.15079" lon="3.23381">
        <ele>755</ele>
        <time>2009-07-08T14:29:05Z</time>
      </trkpt>
      <trkpt lat="44.15079" lon="3.23381">
        <ele>754</ele>
        <time>2009-07-08T14:29:07Z</time>
      </trkpt>
      <trkpt lat="44.15077" lon="3.23382">
        <ele>754</ele>
        <time>2009-07-08T14:29:48Z</time>
      </trkpt>
      <trkpt lat="44.15077" lon="3.23411">
        <ele>754</ele>
        <time>2009-07-08T14:29:58Z</time>
      </trkpt>
      <trkpt lat="44.15088" lon="3.23457">
        <ele>756</ele>
        <time>2009-07-08T14:30:10Z</time>
      </trkpt>
      <trkpt lat="44.15082" lon="3.23513">
        <ele>758</ele>
        <time>2009-07-08T14:30:23Z</time>
      </trkpt>
      <trkpt lat="44.1508" lon="3.23526">
        <ele>761</ele>
        <time>2009-07-08T14:30:26Z</time>
      </trkpt>
      <trkpt lat="44.1508" lon="3.23591">
        <ele>762</ele>
        <time>2009-07-08T14:30:40Z</time>
      </trkpt>
      <trkpt lat="44.15061" lon="3.23657">
        <ele>764</ele>
        <time>2009-07-08T14:30:56Z</time>
      </trkpt>
      <trkpt lat="44.15048" lon="3.23707">
        <ele>767</ele>
        <time>2009-07-08T14:31:09Z</time>
      </trkpt>
      <trkpt lat="44.15045" lon="3.23722">
        <ele>769</ele>
        <time>2009-07-08T14:31:14Z</time>
      </trkpt>
      <trkpt lat="44.15045" lon="3.23759">
        <ele>772</ele>
        <time>2009-07-08T14:31:26Z</time>
      </trkpt>
      <trkpt lat="44.15055" lon="3.23784">
        <ele>775</ele>
        <time>2009-07-08T14:31:36Z</time>
      </trkpt>
      <trkpt lat="44.15044" lon="3.23814">
        <ele>777</ele>
        <time>2009-07-08T14:31:47Z</time>
      </trkpt>
      <trkpt lat="44.15012" lon="3.23831">
        <ele>780</ele>
        <time>2009-07-08T14:32:01Z</time>
      </trkpt>
      <trkpt lat="44.14971" lon="3.2384">
        <ele>783</ele>
        <time>2009-07-08T14:32:18Z</time>
      </trkpt>
      <trkpt lat="44.14953" lon="3.23854">
        <ele>785</ele>
        <time>2009-07-08T14:32:27Z</time>
      </trkpt>
      <trkpt lat="44.14934" lon="3.23884">
        <ele>788</ele>
        <time>2009-07-08T14:32:39Z</time>
      </trkpt>
      <trkpt lat="44.14931" lon="3.23889">
        <ele>789</ele>
        <time>2009-07-08T14:32:41Z</time>
      </trkpt>
      <trkpt lat="44.14913" lon="3.23922">
        <ele>789</ele>
        <time>2009-07-08T14:32:54Z</time>
      </trkpt>
      <trkpt lat="44.14861" lon="3.2397">
        <ele>787</ele>
        <time>2009-07-08T14:33:10Z</time>
      </trkpt>
      <trkpt lat="44.14818" lon="3.24013">
        <ele>788</ele>
        <time>2009-07-08T14:33:27Z</time>
      </trkpt>
      <trkpt lat="44.14817" lon="3.2402">
        <ele>789</ele>
        <time>2009-07-08T14:33:29Z</time>
      </trkpt>
      <trkpt lat="44.14831" lon="3.24034">
        <ele>791</ele>
        <time>2009-07-08T14:33:36Z</time>
      </trkpt>
      <trkpt lat="44.14878" lon="3.2404">
        <ele>794</ele>
        <time>2009-07-08T14:33:52Z</time>
      </trkpt>
      <trkpt lat="44.14924" lon="3.24043">
        <ele>796</ele>
        <time>2009-07-08T14:34:07Z</time>
      </trkpt>
      <trkpt lat="44.1493" lon="3.24051">
        <ele>796</ele>
        <time>2009-07-08T14:34:10Z</time>
      </trkpt>
      <trkpt lat="44.14926" lon="3.24067">
        <ele>798</ele>
        <time>2009-07-08T14:34:15Z</time>
      </trkpt>
      <trkpt lat="44.14903" lon="3.24095">
        <ele>801</ele>
        <time>2009-07-08T14:34:26Z</time>
      </trkpt>
      <trkpt lat="44.14888" lon="3.24103">
        <ele>802</ele>
        <time>2009-07-08T14:34:32Z</time>
      </trkpt>
      <trkpt lat="44.14868" lon="3.2411">
        <ele>804</ele>
        <time>2009-07-08T14:34:42Z</time>
      </trkpt>
      <trkpt lat="44.14867" lon="3.24115">
        <ele>804</ele>
        <time>2009-07-08T14:34:44Z</time>
      </trkpt>
      <trkpt lat="44.14865" lon="3.24147">
        <ele>808</ele>
        <time>2009-07-08T14:34:55Z</time>
      </trkpt>
      <trkpt lat="44.14856" lon="3.24174">
        <ele>809</ele>
        <time>2009-07-08T14:35:04Z</time>
      </trkpt>
      <trkpt lat="44.14849" lon="3.2423">
        <ele>813</ele>
        <time>2009-07-08T14:35:22Z</time>
      </trkpt>
      <trkpt lat="44.14846" lon="3.24261">
        <ele>816</ele>
        <time>2009-07-08T14:35:32Z</time>
      </trkpt>
      <trkpt lat="44.14839" lon="3.24314">
        <ele>819</ele>
        <time>2009-07-08T14:35:49Z</time>
      </trkpt>
      <trkpt lat="44.14839" lon="3.24324">
        <ele>822</ele>
        <time>2009-07-08T14:35:52Z</time>
      </trkpt>
      <trkpt lat="44.14834" lon="3.2436">
        <ele>825</ele>
        <time>2009-07-08T14:36:03Z</time>
      </trkpt>
      <trkpt lat="44.14843" lon="3.24406">
        <ele>828</ele>
        <time>2009-07-08T14:36:17Z</time>
      </trkpt>
      <trkpt lat="44.14847" lon="3.24449">
        <ele>829</ele>
        <time>2009-07-08T14:36:30Z</time>
      </trkpt>
      <trkpt lat="44.1484" lon="3.24453">
        <ele>830</ele>
        <time>2009-07-08T14:36:42Z</time>
      </trkpt>
      <trkpt lat="44.1484" lon="3.24452">
        <ele>830</ele>
        <time>2009-07-08T14:37:01Z</time>
      </trkpt>
      <trkpt lat="44.1484" lon="3.2445">
        <ele>829</ele>
        <time>2009-07-08T14:37:52Z</time>
      </trkpt>
      <trkpt lat="44.14839" lon="3.2445">
        <ele>830</ele>
        <time>2009-07-08T14:38:39Z</time>
      </trkpt>
      <trkpt lat="44.14839" lon="3.2445">
        <ele>830</ele>
        <time>2009-07-08T14:38:56Z</time>
      </trkpt>
      <trkpt lat="44.14836" lon="3.24444">
        <ele>829</ele>
        <time>2009-07-08T14:39:00Z</time>
      </trkpt>
      <trkpt lat="44.14808" lon="3.24398">
        <ele>829</ele>
        <time>2009-07-08T14:39:14Z</time>
      </trkpt>
      <trkpt lat="44.14747" lon="3.24357">
        <ele>830</ele>
        <time>2009-07-08T14:39:33Z</time>
      </trkpt>
      <trkpt lat="44.14688" lon="3.24341">
        <ele>827</ele>
        <time>2009-07-08T14:39:46Z</time>
      </trkpt>
      <trkpt lat="44.14683" lon="3.2434">
        <ele>826</ele>
        <time>2009-07-08T14:39:47Z</time>
      </trkpt>
      <trkpt lat="44.14612" lon="3.24319">
        <ele>829</ele>
        <time>2009-07-08T14:40:02Z</time>
      </trkpt>
      <trkpt lat="44.1458" lon="3.24303">
        <ele>833</ele>
        <time>2009-07-08T14:40:12Z</time>
      </trkpt>
      <trkpt lat="44.14556" lon="3.24281">
        <ele>836</ele>
        <time>2009-07-08T14:40:22Z</time>
      </trkpt>
      <trkpt lat="44.14533" lon="3.24263">
        <ele>839</ele>
        <time>2009-07-08T14:40:31Z</time>
      </trkpt>
      <trkpt lat="44.14486" lon="3.24228">
        <ele>841</ele>
        <time>2009-07-08T14:40:50Z</time>
      </trkpt>
      <trkpt lat="44.14471" lon="3.24224">
        <ele>840</ele>
        <time>2009-07-08T14:40:55Z</time>
      </trkpt>
      <trkpt lat="44.14436" lon="3.24231">
        <ele>838</ele>
        <time>2009-07-08T14:41:03Z</time>
      </trkpt>
      <trkpt lat="44.14431" lon="3.24233">
        <ele>838</ele>
        <time>2009-07-08T14:41:04Z</time>
      </trkpt>
      <trkpt lat="44.14399" lon="3.24262">
        <ele>834</ele>
        <time>2009-07-08T14:41:12Z</time>
      </trkpt>
      <trkpt lat="44.14367" lon="3.24297">
        <ele>831</ele>
        <time>2009-07-08T14:41:18Z</time>
      </trkpt>
      <trkpt lat="44.14331" lon="3.24335">
        <ele>826</ele>
        <time>2009-07-08T14:41:23Z</time>
      </trkpt>
      <trkpt lat="44.14314" lon="3.24353">
        <ele>822</ele>
        <time>2009-07-08T14:41:25Z</time>
      </trkpt>
      <trkpt lat="44.1427" lon="3.244">
        <ele>819</ele>
        <time>2009-07-08T14:41:30Z</time>
      </trkpt>
      <trkpt lat="44.14233" lon="3.24439">
        <ele>816</ele>
        <time>2009-07-08T14:41:34Z</time>
      </trkpt>
      <trkpt lat="44.14154" lon="3.24525">
        <ele>813</ele>
        <time>2009-07-08T14:41:43Z</time>
      </trkpt>
      <trkpt lat="44.14071" lon="3.24617">
        <ele>813</ele>
        <time>2009-07-08T14:41:55Z</time>
      </trkpt>
      <trkpt lat="44.14048" lon="3.24642">
        <ele>813</ele>
        <time>2009-07-08T14:42:02Z</time>
      </trkpt>
      <trkpt lat="44.14019" lon="3.24668">
        <ele>813</ele>
        <time>2009-07-08T14:42:14Z</time>
      </trkpt>
      <trkpt lat="44.13994" lon="3.24708">
        <ele>811</ele>
        <time>2009-07-08T14:42:26Z</time>
      </trkpt>
      <trkpt lat="44.13969" lon="3.24709">
        <ele>812</ele>
        <time>2009-07-08T14:42:36Z</time>
      </trkpt>
      <trkpt lat="44.1396" lon="3.24701">
        <ele>814</ele>
        <time>2009-07-08T14:42:40Z</time>
      </trkpt>
      <trkpt lat="44.13921" lon="3.24675">
        <ele>814</ele>
        <time>2009-07-08T14:42:53Z</time>
      </trkpt>
      <trkpt lat="44.13911" lon="3.2469">
        <ele>814</ele>
        <time>2009-07-08T14:42:58Z</time>
      </trkpt>
      <trkpt lat="44.13899" lon="3.2475">
        <ele>816</ele>
        <time>2009-07-08T14:43:15Z</time>
      </trkpt>
      <trkpt lat="44.13912" lon="3.24785">
        <ele>816</ele>
        <time>2009-07-08T14:43:28Z</time>
      </trkpt>
      <trkpt lat="44.13915" lon="3.24789">
        <ele>816</ele>
        <time>2009-07-08T14:43:38Z</time>
      </trkpt>
      <trkpt lat="44.13917" lon="3.2479">
        <ele>816</ele>
        <time>2009-07-08T14:43:50Z</time>
      </trkpt>
      <trkpt lat="44.1392" lon="3.24792">
        <ele>817</ele>
        <time>2009-07-08T14:44:09Z</time>
      </trkpt>
      <trkpt lat="44.1392" lon="3.24793">
        <ele>817</ele>
        <time>2009-07-08T14:44:24Z</time>
      </trkpt>
      <trkpt lat="44.1392" lon="3.24793">
        <ele>815</ele>
        <time>2009-07-08T14:44:28Z</time>
      </trkpt>
      <trkpt lat="44.1392" lon="3.24793">
        <ele>818</ele>
        <time>2009-07-08T14:44:29Z</time>
      </trkpt>
      <trkpt lat="44.13921" lon="3.24793">
        <ele>816</ele>
        <time>2009-07-08T14:44:30Z</time>
      </trkpt>
      <trkpt lat="44.13928" lon="3.248">
        <ele>816</ele>
        <time>2009-07-08T14:44:45Z</time>
      </trkpt>
      <trkpt lat="44.13931" lon="3.24804">
        <ele>816</ele>
        <time>2009-07-08T14:45:10Z</time>
      </trkpt>
      <trkpt lat="44.13951" lon="3.24819">
        <ele>815</ele>
        <time>2009-07-08T14:45:23Z</time>
      </trkpt>
      <trkpt lat="44.13955" lon="3.24821">
        <ele>816</ele>
        <time>2009-07-08T14:45:35Z</time>
      </trkpt>
      <trkpt lat="44.13955" lon="3.24822">
        <ele>816</ele>
        <time>2009-07-08T14:45:58Z</time>
      </trkpt>
      <trkpt lat="44.13966" lon="3.24827">
        <ele>815</ele>
        <time>2009-07-08T14:46:11Z</time>
      </trkpt>
      <trkpt lat="44.13969" lon="3.2483">
        <ele>814</ele>
        <time>2009-07-08T14:46:22Z</time>
      </trkpt>
      <trkpt lat="44.13969" lon="3.24831">
        <ele>814</ele>
        <time>2009-07-08T14:47:36Z</time>
      </trkpt>
      <trkpt lat="44.13969" lon="3.24829">
        <ele>817</ele>
        <time>2009-07-08T14:48:40Z</time>
      </trkpt>
      <trkpt lat="44.13981" lon="3.24838">
        <ele>817</ele>
        <time>2009-07-08T14:48:52Z</time>
      </trkpt>
      <trkpt lat="44.14014" lon="3.24876">
        <ele>818</ele>
        <time>2009-07-08T14:49:07Z</time>
      </trkpt>
      <trkpt lat="44.14014" lon="3.24913">
        <ele>817</ele>
        <time>2009-07-08T14:49:15Z</time>
      </trkpt>
      <trkpt lat="44.13979" lon="3.24976">
        <ele>815</ele>
        <time>2009-07-08T14:49:27Z</time>
      </trkpt>
      <trkpt lat="44.13971" lon="3.24986">
        <ele>813</ele>
        <time>2009-07-08T14:49:29Z</time>
      </trkpt>
      <trkpt lat="44.13955" lon="3.25001">
        <ele>810</ele>
        <time>2009-07-08T14:49:32Z</time>
      </trkpt>
      <trkpt lat="44.1395" lon="3.25006">
        <ele>810</ele>
        <time>2009-07-08T14:49:33Z</time>
      </trkpt>
      <trkpt lat="44.1391" lon="3.25048">
        <ele>808</ele>
        <time>2009-07-08T14:49:40Z</time>
      </trkpt>
      <trkpt lat="44.13898" lon="3.25062">
        <ele>806</ele>
        <time>2009-07-08T14:49:42Z</time>
      </trkpt>
      <trkpt lat="44.13877" lon="3.25094">
        <ele>804</ele>
        <time>2009-07-08T14:49:46Z</time>
      </trkpt>
      <trkpt lat="44.13874" lon="3.2513">
        <ele>802</ele>
        <time>2009-07-08T14:49:52Z</time>
      </trkpt>
      <trkpt lat="44.13878" lon="3.25148">
        <ele>800</ele>
        <time>2009-07-08T14:49:55Z</time>
      </trkpt>
      <trkpt lat="44.13878" lon="3.25181">
        <ele>798</ele>
        <time>2009-07-08T14:49:59Z</time>
      </trkpt>
      <trkpt lat="44.13871" lon="3.25224">
        <ele>798</ele>
        <time>2009-07-08T14:50:08Z</time>
      </trkpt>
      <trkpt lat="44.13865" lon="3.2528">
        <ele>798</ele>
        <time>2009-07-08T14:50:22Z</time>
      </trkpt>
      <trkpt lat="44.13862" lon="3.25295">
        <ele>798</ele>
        <time>2009-07-08T14:50:25Z</time>
      </trkpt>
      <trkpt lat="44.13858" lon="3.25306">
        <ele>797</ele>
        <time>2009-07-08T14:50:27Z</time>
      </trkpt>
      <trkpt lat="44.13853" lon="3.25324">
        <ele>797</ele>
        <time>2009-07-08T14:50:31Z</time>
      </trkpt>
      <trkpt lat="44.13846" lon="3.25349">
        <ele>797</ele>
        <time>2009-07-08T14:50:42Z</time>
      </trkpt>
      <trkpt lat="44.13847" lon="3.25348">
        <ele>797</ele>
        <time>2009-07-08T14:51:07Z</time>
      </trkpt>
      <trkpt lat="44.13841" lon="3.25375">
        <ele>796</ele>
        <time>2009-07-08T14:51:16Z</time>
      </trkpt>
      <trkpt lat="44.1383" lon="3.25437">
        <ele>795</ele>
        <time>2009-07-08T14:51:29Z</time>
      </trkpt>
      <trkpt lat="44.1383" lon="3.25448">
        <ele>794</ele>
        <time>2009-07-08T14:51:31Z</time>
      </trkpt>
      <trkpt lat="44.13827" lon="3.25468">
        <ele>793</ele>
        <time>2009-07-08T14:51:34Z</time>
      </trkpt>
      <trkpt lat="44.13818" lon="3.25511">
        <ele>792</ele>
        <time>2009-07-08T14:51:40Z</time>
      </trkpt>
      <trkpt lat="44.13804" lon="3.25549">
        <ele>790</ele>
        <time>2009-07-08T14:51:45Z</time>
      </trkpt>
      <trkpt lat="44.138" lon="3.25592">
        <ele>786</ele>
        <time>2009-07-08T14:51:50Z</time>
      </trkpt>
      <trkpt lat="44.13799" lon="3.25601">
        <ele>786</ele>
        <time>2009-07-08T14:51:51Z</time>
      </trkpt>
      <trkpt lat="44.13793" lon="3.25635">
        <ele>786</ele>
        <time>2009-07-08T14:51:56Z</time>
      </trkpt>
      <trkpt lat="44.1377" lon="3.25736">
        <ele>788</ele>
        <time>2009-07-08T14:52:13Z</time>
      </trkpt>
      <trkpt lat="44.13738" lon="3.25814">
        <ele>789</ele>
        <time>2009-07-08T14:52:28Z</time>
      </trkpt>
      <trkpt lat="44.137" lon="3.25874">
        <ele>789</ele>
        <time>2009-07-08T14:52:43Z</time>
      </trkpt>
      <trkpt lat="44.13689" lon="3.25861">
        <ele>790</ele>
        <time>2009-07-08T14:52:52Z</time>
      </trkpt>
      <trkpt lat="44.13684" lon="3.25882">
        <ele>789</ele>
        <time>2009-07-08T14:53:00Z</time>
      </trkpt>
      <trkpt lat="44.1368" lon="3.25875">
        <ele>789</ele>
        <time>2009-07-08T14:53:02Z</time>
      </trkpt>
      <trkpt lat="44.13662" lon="3.25814">
        <ele>790</ele>
        <time>2009-07-08T14:53:16Z</time>
      </trkpt>
      <trkpt lat="44.13632" lon="3.25701">
        <ele>793</ele>
        <time>2009-07-08T14:53:41Z</time>
      </trkpt>
      <trkpt lat="44.13628" lon="3.25688">
        <ele>792</ele>
        <time>2009-07-08T14:53:45Z</time>
      </trkpt>
      <trkpt lat="44.13621" lon="3.25686">
        <ele>794</ele>
        <time>2009-07-08T14:53:48Z</time>
      </trkpt>
      <trkpt lat="44.13617" lon="3.2569">
        <ele>795</ele>
        <time>2009-07-08T14:53:50Z</time>
      </trkpt>
      <trkpt lat="44.1361" lon="3.25706">
        <ele>796</ele>
        <time>2009-07-08T14:53:55Z</time>
      </trkpt>
      <trkpt lat="44.13585" lon="3.25719">
        <ele>800</ele>
        <time>2009-07-08T14:54:07Z</time>
      </trkpt>
      <trkpt lat="44.13578" lon="3.2572">
        <ele>800</ele>
        <time>2009-07-08T14:54:19Z</time>
      </trkpt>
      <trkpt lat="44.1358" lon="3.25722">
        <ele>799</ele>
        <time>2009-07-08T14:54:24Z</time>
      </trkpt>
      <trkpt lat="44.13601" lon="3.25719">
        <ele>796</ele>
        <time>2009-07-08T14:54:32Z</time>
      </trkpt>
      <trkpt lat="44.13605" lon="3.25717">
        <ele>795</ele>
        <time>2009-07-08T14:54:33Z</time>
      </trkpt>
      <trkpt lat="44.13617" lon="3.25693">
        <ele>794</ele>
        <time>2009-07-08T14:54:38Z</time>
      </trkpt>
      <trkpt lat="44.13625" lon="3.25696">
        <ele>796</ele>
        <time>2009-07-08T14:54:47Z</time>
      </trkpt>
      <trkpt lat="44.13621" lon="3.25704">
        <ele>796</ele>
        <time>2009-07-08T14:54:50Z</time>
      </trkpt>
      <trkpt lat="44.13608" lon="3.25731">
        <ele>798</ele>
        <time>2009-07-08T14:55:02Z</time>
      </trkpt>
      <trkpt lat="44.13588" lon="3.25769">
        <ele>799</ele>
        <time>2009-07-08T14:55:17Z</time>
      </trkpt>
      <trkpt lat="44.13563" lon="3.25817">
        <ele>797</ele>
        <time>2009-07-08T14:55:31Z</time>
      </trkpt>
      <trkpt lat="44.13539" lon="3.25866">
        <ele>801</ele>
        <time>2009-07-08T14:55:45Z</time>
      </trkpt>
      <trkpt lat="44.1349" lon="3.25937">
        <ele>803</ele>
        <time>2009-07-08T14:56:06Z</time>
      </trkpt>
      <trkpt lat="44.13458" lon="3.2597">
        <ele>801</ele>
        <time>2009-07-08T14:56:16Z</time>
      </trkpt>
      <trkpt lat="44.13438" lon="3.25982">
        <ele>798</ele>
        <time>2009-07-08T14:56:20Z</time>
      </trkpt>
      <trkpt lat="44.13416" lon="3.25991">
        <ele>797</ele>
        <time>2009-07-08T14:56:25Z</time>
      </trkpt>
      <trkpt lat="44.13413" lon="3.25997">
        <ele>797</ele>
        <time>2009-07-08T14:56:28Z</time>
      </trkpt>
      <trkpt lat="44.13386" lon="3.26037">
        <ele>797</ele>
        <time>2009-07-08T14:56:40Z</time>
      </trkpt>
      <trkpt lat="44.13359" lon="3.26088">
        <ele>796</ele>
        <time>2009-07-08T14:56:53Z</time>
      </trkpt>
      <trkpt lat="44.13328" lon="3.26142">
        <ele>797</ele>
        <time>2009-07-08T14:57:06Z</time>
      </trkpt>
      <trkpt lat="44.13282" lon="3.26232">
        <ele>796</ele>
        <time>2009-07-08T14:57:25Z</time>
      </trkpt>
      <trkpt lat="44.13254" lon="3.26281">
        <ele>794</ele>
        <time>2009-07-08T14:57:36Z</time>
      </trkpt>
      <trkpt lat="44.13247" lon="3.26291">
        <ele>793</ele>
        <time>2009-07-08T14:57:38Z</time>
      </trkpt>
      <trkpt lat="44.13244" lon="3.26296">
        <ele>792</ele>
        <time>2009-07-08T14:57:39Z</time>
      </trkpt>
      <trkpt lat="44.13224" lon="3.26313">
        <ele>791</ele>
        <time>2009-07-08T14:57:43Z</time>
      </trkpt>
      <trkpt lat="44.13219" lon="3.26317">
        <ele>790</ele>
        <time>2009-07-08T14:57:44Z</time>
      </trkpt>
      <trkpt lat="44.13171" lon="3.26392">
        <ele>791</ele>
        <time>2009-07-08T14:57:59Z</time>
      </trkpt>
      <trkpt lat="44.13117" lon="3.2648">
        <ele>792</ele>
        <time>2009-07-08T14:58:19Z</time>
      </trkpt>
      <trkpt lat="44.13092" lon="3.26525">
        <ele>794</ele>
        <time>2009-07-08T14:58:32Z</time>
      </trkpt>
      <trkpt lat="44.13079" lon="3.26548">
        <ele>795</ele>
        <time>2009-07-08T14:58:39Z</time>
      </trkpt>
      <trkpt lat="44.13057" lon="3.26588">
        <ele>797</ele>
        <time>2009-07-08T14:58:52Z</time>
      </trkpt>
      <trkpt lat="44.13021" lon="3.26643">
        <ele>794</ele>
        <time>2009-07-08T14:59:08Z</time>
      </trkpt>
      <trkpt lat="44.12985" lon="3.26702">
        <ele>792</ele>
        <time>2009-07-08T14:59:21Z</time>
      </trkpt>
      <trkpt lat="44.12963" lon="3.26765">
        <ele>793</ele>
        <time>2009-07-08T14:59:35Z</time>
      </trkpt>
      <trkpt lat="44.12939" lon="3.26851">
        <ele>792</ele>
        <time>2009-07-08T14:59:51Z</time>
      </trkpt>
      <trkpt lat="44.12936" lon="3.26875">
        <ele>791</ele>
        <time>2009-07-08T14:59:55Z</time>
      </trkpt>
      <trkpt lat="44.1293" lon="3.26928">
        <ele>793</ele>
        <time>2009-07-08T15:00:05Z</time>
      </trkpt>
      <trkpt lat="44.12926" lon="3.26991">
        <ele>796</ele>
        <time>2009-07-08T15:00:23Z</time>
      </trkpt>
      <trkpt lat="44.12927" lon="3.27014">
        <ele>799</ele>
        <time>2009-07-08T15:00:32Z</time>
      </trkpt>
      <trkpt lat="44.12929" lon="3.27028">
        <ele>802</ele>
        <time>2009-07-08T15:00:38Z</time>
      </trkpt>
      <trkpt lat="44.12932" lon="3.2705">
        <ele>805</ele>
        <time>2009-07-08T15:00:47Z</time>
      </trkpt>
      <trkpt lat="44.12932" lon="3.27052">
        <ele>805</ele>
        <time>2009-07-08T15:00:48Z</time>
      </trkpt>
      <trkpt lat="44.1293" lon="3.27089">
        <ele>808</ele>
        <time>2009-07-08T15:01:05Z</time>
      </trkpt>
      <trkpt lat="44.12929" lon="3.27105">
        <ele>812</ele>
        <time>2009-07-08T15:01:12Z</time>
      </trkpt>
      <trkpt lat="44.12928" lon="3.27112">
        <ele>813</ele>
        <time>2009-07-08T15:01:15Z</time>
      </trkpt>
      <trkpt lat="44.12917" lon="3.27157">
        <ele>816</ele>
        <time>2009-07-08T15:01:33Z</time>
      </trkpt>
      <trkpt lat="44.12913" lon="3.27173">
        <ele>819</ele>
        <time>2009-07-08T15:01:39Z</time>
      </trkpt>
      <trkpt lat="44.12909" lon="3.27185">
        <ele>821</ele>
        <time>2009-07-08T15:01:44Z</time>
      </trkpt>
      <trkpt lat="44.12902" lon="3.27199">
        <ele>822</ele>
        <time>2009-07-08T15:01:57Z</time>
      </trkpt>
      <trkpt lat="44.12903" lon="3.27203">
        <ele>821</ele>
        <time>2009-07-08T15:02:03Z</time>
      </trkpt>
      <trkpt lat="44.12891" lon="3.27235">
        <ele>821</ele>
        <time>2009-07-08T15:02:17Z</time>
      </trkpt>
      <trkpt lat="44.12872" lon="3.27279">
        <ele>821</ele>
        <time>2009-07-08T15:02:32Z</time>
      </trkpt>
      <trkpt lat="44.12849" lon="3.27344">
        <ele>821</ele>
        <time>2009-07-08T15:02:50Z</time>
      </trkpt>
      <trkpt lat="44.12836" lon="3.27404">
        <ele>824</ele>
        <time>2009-07-08T15:03:05Z</time>
      </trkpt>
      <trkpt lat="44.12839" lon="3.27463">
        <ele>825</ele>
        <time>2009-07-08T15:03:19Z</time>
      </trkpt>
      <trkpt lat="44.12844" lon="3.27487">
        <ele>825</ele>
        <time>2009-07-08T15:03:24Z</time>
      </trkpt>
      <trkpt lat="44.12831" lon="3.27506">
        <ele>824</ele>
        <time>2009-07-08T15:03:31Z</time>
      </trkpt>
      <trkpt lat="44.12817" lon="3.27511">
        <ele>824</ele>
        <time>2009-07-08T15:03:35Z</time>
      </trkpt>
      <trkpt lat="44.128" lon="3.27519">
        <ele>821</ele>
        <time>2009-07-08T15:03:39Z</time>
      </trkpt>
      <trkpt lat="44.12795" lon="3.27522">
        <ele>821</ele>
        <time>2009-07-08T15:03:40Z</time>
      </trkpt>
      <trkpt lat="44.12777" lon="3.27544">
        <ele>819</ele>
        <time>2009-07-08T15:03:44Z</time>
      </trkpt>
      <trkpt lat="44.12753" lon="3.27591">
        <ele>816</ele>
        <time>2009-07-08T15:03:50Z</time>
      </trkpt>
      <trkpt lat="44.12733" lon="3.27615">
        <ele>813</ele>
        <time>2009-07-08T15:03:54Z</time>
      </trkpt>
      <trkpt lat="44.1266" lon="3.27686">
        <ele>814</ele>
        <time>2009-07-08T15:04:05Z</time>
      </trkpt>
      <trkpt lat="44.12645" lon="3.27713">
        <ele>814</ele>
        <time>2009-07-08T15:04:09Z</time>
      </trkpt>
      <trkpt lat="44.12634" lon="3.27727">
        <ele>814</ele>
        <time>2009-07-08T15:04:12Z</time>
      </trkpt>
      <trkpt lat="44.12618" lon="3.27739">
        <ele>814</ele>
        <time>2009-07-08T15:04:16Z</time>
      </trkpt>
      <trkpt lat="44.12553" lon="3.27745">
        <ele>818</ele>
        <time>2009-07-08T15:04:33Z</time>
      </trkpt>
      <trkpt lat="44.1249" lon="3.27755">
        <ele>821</ele>
        <time>2009-07-08T15:04:50Z</time>
      </trkpt>
      <trkpt lat="44.12469" lon="3.27795">
        <ele>824</ele>
        <time>2009-07-08T15:05:02Z</time>
      </trkpt>
      <trkpt lat="44.12461" lon="3.27839">
        <ele>828</ele>
        <time>2009-07-08T15:05:14Z</time>
      </trkpt>
      <trkpt lat="44.12456" lon="3.27867">
        <ele>831</ele>
        <time>2009-07-08T15:05:22Z</time>
      </trkpt>
      <trkpt lat="44.12451" lon="3.27887">
        <ele>833</ele>
        <time>2009-07-08T15:05:28Z</time>
      </trkpt>
      <trkpt lat="44.12447" lon="3.27907">
        <ele>834</ele>
        <time>2009-07-08T15:05:34Z</time>
      </trkpt>
      <trkpt lat="44.12438" lon="3.27956">
        <ele>838</ele>
        <time>2009-07-08T15:05:48Z</time>
      </trkpt>
      <trkpt lat="44.12431" lon="3.27998">
        <ele>841</ele>
        <time>2009-07-08T15:06:00Z</time>
      </trkpt>
      <trkpt lat="44.12427" lon="3.28012">
        <ele>843</ele>
        <time>2009-07-08T15:06:04Z</time>
      </trkpt>
      <trkpt lat="44.12405" lon="3.28047">
        <ele>846</ele>
        <time>2009-07-08T15:06:17Z</time>
      </trkpt>
      <trkpt lat="44.12393" lon="3.28069">
        <ele>849</ele>
        <time>2009-07-08T15:06:25Z</time>
      </trkpt>
      <trkpt lat="44.12385" lon="3.28107">
        <ele>853</ele>
        <time>2009-07-08T15:06:36Z</time>
      </trkpt>
      <trkpt lat="44.12384" lon="3.28111">
        <ele>853</ele>
        <time>2009-07-08T15:06:37Z</time>
      </trkpt>
      <trkpt lat="44.12369" lon="3.28179">
        <ele>855</ele>
        <time>2009-07-08T15:06:56Z</time>
      </trkpt>
      <trkpt lat="44.12349" lon="3.2822">
        <ele>856</ele>
        <time>2009-07-08T15:07:08Z</time>
      </trkpt>
      <trkpt lat="44.12327" lon="3.28271">
        <ele>854</ele>
        <time>2009-07-08T15:07:24Z</time>
      </trkpt>
      <trkpt lat="44.12294" lon="3.2835">
        <ele>853</ele>
        <time>2009-07-08T15:07:40Z</time>
      </trkpt>
      <trkpt lat="44.12269" lon="3.28412">
        <ele>854</ele>
        <time>2009-07-08T15:07:55Z</time>
      </trkpt>
      <trkpt lat="44.12236" lon="3.2848">
        <ele>855</ele>
        <time>2009-07-08T15:08:12Z</time>
      </trkpt>
      <trkpt lat="44.12194" lon="3.28552">
        <ele>852</ele>
        <time>2009-07-08T15:08:27Z</time>
      </trkpt>
      <trkpt lat="44.12185" lon="3.28566">
        <ele>850</ele>
        <time>2009-07-08T15:08:29Z</time>
      </trkpt>
      <trkpt lat="44.12107" lon="3.28697">
        <ele>847</ele>
        <time>2009-07-08T15:08:45Z</time>
      </trkpt>
      <trkpt lat="44.1205" lon="3.28795">
        <ele>848</ele>
        <time>2009-07-08T15:08:59Z</time>
      </trkpt>
      <trkpt lat="44.12029" lon="3.28828">
        <ele>851</ele>
        <time>2009-07-08T15:09:10Z</time>
      </trkpt>
      <trkpt lat="44.12004" lon="3.28876">
        <ele>852</ele>
        <time>2009-07-08T15:09:25Z</time>
      </trkpt>
      <trkpt lat="44.12001" lon="3.28883">
        <ele>853</ele>
        <time>2009-07-08T15:09:27Z</time>
      </trkpt>
      <trkpt lat="44.11986" lon="3.28932">
        <ele>854</ele>
        <time>2009-07-08T15:09:41Z</time>
      </trkpt>
      <trkpt lat="44.11966" lon="3.28997">
        <ele>855</ele>
        <time>2009-07-08T15:09:56Z</time>
      </trkpt>
      <trkpt lat="44.11953" lon="3.29077">
        <ele>854</ele>
        <time>2009-07-08T15:10:14Z</time>
      </trkpt>
      <trkpt lat="44.11953" lon="3.29076">
        <ele>853</ele>
        <time>2009-07-08T15:10:25Z</time>
      </trkpt>
      <trkpt lat="44.11952" lon="3.29072">
        <ele>853</ele>
        <time>2009-07-08T15:10:41Z</time>
      </trkpt>
      <trkpt lat="44.11952" lon="3.29071">
        <ele>853</ele>
        <time>2009-07-08T15:10:42Z</time>
      </trkpt>
      <trkpt lat="44.1193" lon="3.29061">
        <ele>850</ele>
        <time>2009-07-08T15:10:52Z</time>
      </trkpt>
      <trkpt lat="44.11914" lon="3.29073">
        <ele>850</ele>
        <time>2009-07-08T15:10:59Z</time>
      </trkpt>
      <trkpt lat="44.11914" lon="3.29073">
        <ele>850</ele>
        <time>2009-07-08T15:11:19Z</time>
      </trkpt>
      <trkpt lat="44.11914" lon="3.29073">
        <ele>851</ele>
        <time>2009-07-08T15:11:20Z</time>
      </trkpt>
      <trkpt lat="44.11906" lon="3.29078">
        <ele>850</ele>
        <time>2009-07-08T15:11:24Z</time>
      </trkpt>
      <trkpt lat="44.11845" lon="3.29103">
        <ele>849</ele>
        <time>2009-07-08T15:11:38Z</time>
      </trkpt>
      <trkpt lat="44.11776" lon="3.29118">
        <ele>851</ele>
        <time>2009-07-08T15:11:54Z</time>
      </trkpt>
      <trkpt lat="44.11724" lon="3.29185">
        <ele>847</ele>
        <time>2009-07-08T15:12:07Z</time>
      </trkpt>
      <trkpt lat="44.11717" lon="3.29199">
        <ele>846</ele>
        <time>2009-07-08T15:12:09Z</time>
      </trkpt>
      <trkpt lat="44.11683" lon="3.29252">
        <ele>842</ele>
        <time>2009-07-08T15:12:17Z</time>
      </trkpt>
      <trkpt lat="44.1168" lon="3.29267">
        <ele>841</ele>
        <time>2009-07-08T15:12:19Z</time>
      </trkpt>
      <trkpt lat="44.11682" lon="3.29283">
        <ele>839</ele>
        <time>2009-07-08T15:12:21Z</time>
      </trkpt>
      <trkpt lat="44.1169" lon="3.2933">
        <ele>836</ele>
        <time>2009-07-08T15:12:26Z</time>
      </trkpt>
      <trkpt lat="44.11711" lon="3.29359">
        <ele>834</ele>
        <time>2009-07-08T15:12:31Z</time>
      </trkpt>
      <trkpt lat="44.1174" lon="3.2941">
        <ele>832</ele>
        <time>2009-07-08T15:12:42Z</time>
      </trkpt>
      <trkpt lat="44.11714" lon="3.29442">
        <ele>830</ele>
        <time>2009-07-08T15:12:47Z</time>
      </trkpt>
      <trkpt lat="44.11699" lon="3.29453">
        <ele>829</ele>
        <time>2009-07-08T15:12:53Z</time>
      </trkpt>
      <trkpt lat="44.11688" lon="3.29456">
        <ele>827</ele>
        <time>2009-07-08T15:12:56Z</time>
      </trkpt>
      <trkpt lat="44.11671" lon="3.29461">
        <ele>826</ele>
        <time>2009-07-08T15:13:00Z</time>
      </trkpt>
      <trkpt lat="44.11653" lon="3.29473">
        <ele>824</ele>
        <time>2009-07-08T15:13:04Z</time>
      </trkpt>
      <trkpt lat="44.11619" lon="3.29488">
        <ele>821</ele>
        <time>2009-07-08T15:13:10Z</time>
      </trkpt>
      <trkpt lat="44.1159" lon="3.29508">
        <ele>818</ele>
        <time>2009-07-08T15:13:15Z</time>
      </trkpt>
      <trkpt lat="44.11547" lon="3.29531">
        <ele>816</ele>
        <time>2009-07-08T15:13:24Z</time>
      </trkpt>
      <trkpt lat="44.11539" lon="3.2953">
        <ele>814</ele>
        <time>2009-07-08T15:13:26Z</time>
      </trkpt>
      <trkpt lat="44.11496" lon="3.2951">
        <ele>812</ele>
        <time>2009-07-08T15:13:35Z</time>
      </trkpt>
      <trkpt lat="44.11466" lon="3.29521">
        <ele>809</ele>
        <time>2009-07-08T15:13:43Z</time>
      </trkpt>
      <trkpt lat="44.11434" lon="3.29538">
        <ele>811</ele>
        <time>2009-07-08T15:13:54Z</time>
      </trkpt>
      <trkpt lat="44.11409" lon="3.29553">
        <ele>813</ele>
        <time>2009-07-08T15:14:07Z</time>
      </trkpt>
      <trkpt lat="44.11391" lon="3.29565">
        <ele>816</ele>
        <time>2009-07-08T15:14:18Z</time>
      </trkpt>
      <trkpt lat="44.1138" lon="3.29559">
        <ele>817</ele>
        <time>2009-07-08T15:14:25Z</time>
      </trkpt>
      <trkpt lat="44.11362" lon="3.29547">
        <ele>820</ele>
        <time>2009-07-08T15:14:38Z</time>
      </trkpt>
      <trkpt lat="44.11339" lon="3.2953">
        <ele>824</ele>
        <time>2009-07-08T15:14:56Z</time>
      </trkpt>
      <trkpt lat="44.11326" lon="3.29521">
        <ele>827</ele>
        <time>2009-07-08T15:15:06Z</time>
      </trkpt>
      <trkpt lat="44.1131" lon="3.29512">
        <ele>830</ele>
        <time>2009-07-08T15:15:17Z</time>
      </trkpt>
      <trkpt lat="44.11309" lon="3.29511">
        <ele>831</ele>
        <time>2009-07-08T15:15:18Z</time>
      </trkpt>
      <trkpt lat="44.11288" lon="3.29515">
        <ele>833</ele>
        <time>2009-07-08T15:15:34Z</time>
      </trkpt>
      <trkpt lat="44.11285" lon="3.29521">
        <ele>834</ele>
        <time>2009-07-08T15:15:48Z</time>
      </trkpt>
      <trkpt lat="44.11283" lon="3.29525">
        <ele>833</ele>
        <time>2009-07-08T15:16:04Z</time>
      </trkpt>
      <trkpt lat="44.1128" lon="3.29533">
        <ele>834</ele>
        <time>2009-07-08T15:16:19Z</time>
      </trkpt>
      <trkpt lat="44.1128" lon="3.29534">
        <ele>834</ele>
        <time>2009-07-08T15:17:03Z</time>
      </trkpt>
      <trkpt lat="44.11277" lon="3.29556">
        <ele>835</ele>
        <time>2009-07-08T15:18:01Z</time>
      </trkpt>
      <trkpt lat="44.11271" lon="3.29596">
        <ele>837</ele>
        <time>2009-07-08T15:18:17Z</time>
      </trkpt>
      <trkpt lat="44.11263" lon="3.29639">
        <ele>840</ele>
        <time>2009-07-08T15:18:32Z</time>
      </trkpt>
      <trkpt lat="44.11274" lon="3.29673">
        <ele>840</ele>
        <time>2009-07-08T15:18:44Z</time>
      </trkpt>
      <trkpt lat="44.11277" lon="3.29688">
        <ele>842</ele>
        <time>2009-07-08T15:18:49Z</time>
      </trkpt>
      <trkpt lat="44.11277" lon="3.29692">
        <ele>842</ele>
        <time>2009-07-08T15:19:01Z</time>
      </trkpt>
      <trkpt lat="44.11277" lon="3.29692">
        <ele>842</ele>
        <time>2009-07-08T15:19:55Z</time>
      </trkpt>
      <trkpt lat="44.11276" lon="3.29692">
        <ele>843</ele>
        <time>2009-07-08T15:20:27Z</time>
      </trkpt>
      <trkpt lat="44.11272" lon="3.29699">
        <ele>842</ele>
        <time>2009-07-08T15:20:31Z</time>
      </trkpt>
      <trkpt lat="44.11255" lon="3.29732">
        <ele>846</ele>
        <time>2009-07-08T15:20:43Z</time>
      </trkpt>
      <trkpt lat="44.11242" lon="3.29777">
        <ele>848</ele>
        <time>2009-07-08T15:20:58Z</time>
      </trkpt>
      <trkpt lat="44.11214" lon="3.29806">
        <ele>850</ele>
        <time>2009-07-08T15:21:12Z</time>
      </trkpt>
      <trkpt lat="44.1118" lon="3.29834">
        <ele>853</ele>
        <time>2009-07-08T15:21:27Z</time>
      </trkpt>
      <trkpt lat="44.11178" lon="3.29836">
        <ele>854</ele>
        <time>2009-07-08T15:21:28Z</time>
      </trkpt>
      <trkpt lat="44.1114" lon="3.29877">
        <ele>856</ele>
        <time>2009-07-08T15:21:45Z</time>
      </trkpt>
      <trkpt lat="44.111" lon="3.29923">
        <ele>855</ele>
        <time>2009-07-08T15:22:02Z</time>
      </trkpt>
      <trkpt lat="44.11083" lon="3.29943">
        <ele>854</ele>
        <time>2009-07-08T15:22:09Z</time>
      </trkpt>
      <trkpt lat="44.11042" lon="3.29992">
        <ele>851</ele>
        <time>2009-07-08T15:22:19Z</time>
      </trkpt>
      <trkpt lat="44.11029" lon="3.30041">
        <ele>847</ele>
        <time>2009-07-08T15:22:24Z</time>
      </trkpt>
      <trkpt lat="44.11028" lon="3.30079">
        <ele>843</ele>
        <time>2009-07-08T15:22:27Z</time>
      </trkpt>
      <trkpt lat="44.1103" lon="3.30123">
        <ele>840</ele>
        <time>2009-07-08T15:22:30Z</time>
      </trkpt>
      <trkpt lat="44.11033" lon="3.30164">
        <ele>836</ele>
        <time>2009-07-08T15:22:33Z</time>
      </trkpt>
      <trkpt lat="44.11038" lon="3.3019">
        <ele>835</ele>
        <time>2009-07-08T15:22:35Z</time>
      </trkpt>
      <trkpt lat="44.11041" lon="3.30203">
        <ele>835</ele>
        <time>2009-07-08T15:22:36Z</time>
      </trkpt>
      <trkpt lat="44.11043" lon="3.3024">
        <ele>831</ele>
        <time>2009-07-08T15:22:39Z</time>
      </trkpt>
      <trkpt lat="44.11018" lon="3.30267">
        <ele>830</ele>
        <time>2009-07-08T15:22:43Z</time>
      </trkpt>
      <trkpt lat="44.10995" lon="3.30269">
        <ele>831</ele>
        <time>2009-07-08T15:22:46Z</time>
      </trkpt>
      <trkpt lat="44.10948" lon="3.30265">
        <ele>833</ele>
        <time>2009-07-08T15:22:56Z</time>
      </trkpt>
      <trkpt lat="44.10933" lon="3.30277">
        <ele>835</ele>
        <time>2009-07-08T15:23:03Z</time>
      </trkpt>
      <trkpt lat="44.10929" lon="3.30281">
        <ele>835</ele>
        <time>2009-07-08T15:23:14Z</time>
      </trkpt>
      <trkpt lat="44.10925" lon="3.30282">
        <ele>835</ele>
        <time>2009-07-08T15:23:32Z</time>
      </trkpt>
      <trkpt lat="44.10923" lon="3.3028">
        <ele>835</ele>
        <time>2009-07-08T15:23:54Z</time>
      </trkpt>
      <trkpt lat="44.10916" lon="3.30287">
        <ele>838</ele>
        <time>2009-07-08T15:24:11Z</time>
      </trkpt>
      <trkpt lat="44.10916" lon="3.30287">
        <ele>838</ele>
        <time>2009-07-08T15:24:14Z</time>
      </trkpt>
      <trkpt lat="44.10904" lon="3.30301">
        <ele>840</ele>
        <time>2009-07-08T15:24:22Z</time>
      </trkpt>
      <trkpt lat="44.10881" lon="3.30345">
        <ele>843</ele>
        <time>2009-07-08T15:24:39Z</time>
      </trkpt>
      <trkpt lat="44.10888" lon="3.30383">
        <ele>846</ele>
        <time>2009-07-08T15:24:53Z</time>
      </trkpt>
      <trkpt lat="44.10905" lon="3.30428">
        <ele>849</ele>
        <time>2009-07-08T15:25:09Z</time>
      </trkpt>
      <trkpt lat="44.10931" lon="3.30482">
        <ele>851</ele>
        <time>2009-07-08T15:25:28Z</time>
      </trkpt>
      <trkpt lat="44.10958" lon="3.30506">
        <ele>855</ele>
        <time>2009-07-08T15:25:40Z</time>
      </trkpt>
      <trkpt lat="44.1099" lon="3.30561">
        <ele>858</ele>
        <time>2009-07-08T15:25:59Z</time>
      </trkpt>
      <trkpt lat="44.11008" lon="3.30611">
        <ele>861</ele>
        <time>2009-07-08T15:26:14Z</time>
      </trkpt>
      <trkpt lat="44.1101" lon="3.30618">
        <ele>862</ele>
        <time>2009-07-08T15:26:16Z</time>
      </trkpt>
      <trkpt lat="44.11025" lon="3.30662">
        <ele>865</ele>
        <time>2009-07-08T15:26:29Z</time>
      </trkpt>
      <trkpt lat="44.1104" lon="3.30727">
        <ele>867</ele>
        <time>2009-07-08T15:26:46Z</time>
      </trkpt>
      <trkpt lat="44.11059" lon="3.30789">
        <ele>869</ele>
        <time>2009-07-08T15:27:02Z</time>
      </trkpt>
      <trkpt lat="44.11085" lon="3.30866">
        <ele>872</ele>
        <time>2009-07-08T15:27:22Z</time>
      </trkpt>
      <trkpt lat="44.11093" lon="3.30894">
        <ele>873</ele>
        <time>2009-07-08T15:27:29Z</time>
      </trkpt>
      <trkpt lat="44.11113" lon="3.3097">
        <ele>874</ele>
        <time>2009-07-08T15:27:47Z</time>
      </trkpt>
      <trkpt lat="44.11142" lon="3.31082">
        <ele>875</ele>
        <time>2009-07-08T15:28:09Z</time>
      </trkpt>
      <trkpt lat="44.11147" lon="3.31121">
        <ele>875</ele>
        <time>2009-07-08T15:28:16Z</time>
      </trkpt>
      <trkpt lat="44.11159" lon="3.31198">
        <ele>874</ele>
        <time>2009-07-08T15:28:29Z</time>
      </trkpt>
      <trkpt lat="44.11168" lon="3.31271">
        <ele>876</ele>
        <time>2009-07-08T15:28:42Z</time>
      </trkpt>
      <trkpt lat="44.11165" lon="3.31373">
        <ele>879</ele>
        <time>2009-07-08T15:29:01Z</time>
      </trkpt>
      <trkpt lat="44.11172" lon="3.3145">
        <ele>882</ele>
        <time>2009-07-08T15:29:17Z</time>
      </trkpt>
      <trkpt lat="44.11183" lon="3.31541">
        <ele>885</ele>
        <time>2009-07-08T15:29:37Z</time>
      </trkpt>
      <trkpt lat="44.11193" lon="3.31557">
        <ele>884</ele>
        <time>2009-07-08T15:29:49Z</time>
      </trkpt>
      <trkpt lat="44.11195" lon="3.3156">
        <ele>887</ele>
        <time>2009-07-08T15:30:29Z</time>
      </trkpt>
      <trkpt lat="44.11198" lon="3.31562">
        <ele>886</ele>
        <time>2009-07-08T15:30:48Z</time>
      </trkpt>
      <trkpt lat="44.112" lon="3.31568">
        <ele>887</ele>
        <time>2009-07-08T15:31:08Z</time>
      </trkpt>
      <trkpt lat="44.11201" lon="3.31574">
        <ele>887</ele>
        <time>2009-07-08T15:31:18Z</time>
      </trkpt>
      <trkpt lat="44.1122" lon="3.3163">
        <ele>887</ele>
        <time>2009-07-08T15:31:32Z</time>
      </trkpt>
      <trkpt lat="44.11232" lon="3.31686">
        <ele>884</ele>
        <time>2009-07-08T15:31:39Z</time>
      </trkpt>
      <trkpt lat="44.11263" lon="3.31773">
        <ele>881</ele>
        <time>2009-07-08T15:31:49Z</time>
      </trkpt>
      <trkpt lat="44.1127" lon="3.31824">
        <ele>879</ele>
        <time>2009-07-08T15:31:54Z</time>
      </trkpt>
      <trkpt lat="44.11283" lon="3.31869">
        <ele>880</ele>
        <time>2009-07-08T15:31:59Z</time>
      </trkpt>
      <trkpt lat="44.1129" lon="3.31892">
        <ele>881</ele>
        <time>2009-07-08T15:32:02Z</time>
      </trkpt>
      <trkpt lat="44.11303" lon="3.31967">
        <ele>879</ele>
        <time>2009-07-08T15:32:12Z</time>
      </trkpt>
      <trkpt lat="44.11308" lon="3.32007">
        <ele>879</ele>
        <time>2009-07-08T15:32:17Z</time>
      </trkpt>
      <trkpt lat="44.11312" lon="3.32107">
        <ele>879</ele>
        <time>2009-07-08T15:32:31Z</time>
      </trkpt>
      <trkpt lat="44.11315" lon="3.32171">
        <ele>880</ele>
        <time>2009-07-08T15:32:41Z</time>
      </trkpt>
      <trkpt lat="44.11312" lon="3.32233">
        <ele>879</ele>
        <time>2009-07-08T15:32:51Z</time>
      </trkpt>
      <trkpt lat="44.11315" lon="3.32258">
        <ele>879</ele>
        <time>2009-07-08T15:32:55Z</time>
      </trkpt>
      <trkpt lat="44.11322" lon="3.32291">
        <ele>879</ele>
        <time>2009-07-08T15:33:00Z</time>
      </trkpt>
      <trkpt lat="44.1132" lon="3.32331">
        <ele>879</ele>
        <time>2009-07-08T15:33:06Z</time>
      </trkpt>
      <trkpt lat="44.11321" lon="3.32385">
        <ele>876</ele>
        <time>2009-07-08T15:33:13Z</time>
      </trkpt>
      <trkpt lat="44.11317" lon="3.32495">
        <ele>874</ele>
        <time>2009-07-08T15:33:27Z</time>
      </trkpt>
      <trkpt lat="44.11313" lon="3.32541">
        <ele>871</ele>
        <time>2009-07-08T15:33:32Z</time>
      </trkpt>
      <trkpt lat="44.11305" lon="3.32578">
        <ele>870</ele>
        <time>2009-07-08T15:33:36Z</time>
      </trkpt>
      <trkpt lat="44.11302" lon="3.32587">
        <ele>870</ele>
        <time>2009-07-08T15:33:37Z</time>
      </trkpt>
      <trkpt lat="44.1129" lon="3.32618">
        <ele>870</ele>
        <time>2009-07-08T15:33:41Z</time>
      </trkpt>
      <trkpt lat="44.11284" lon="3.32651">
        <ele>869</ele>
        <time>2009-07-08T15:33:45Z</time>
      </trkpt>
      <trkpt lat="44.1129" lon="3.32751">
        <ele>866</ele>
        <time>2009-07-08T15:33:57Z</time>
      </trkpt>
      <trkpt lat="44.1129" lon="3.32799">
        <ele>864</ele>
        <time>2009-07-08T15:34:03Z</time>
      </trkpt>
      <trkpt lat="44.1129" lon="3.32832">
        <ele>864</ele>
        <time>2009-07-08T15:34:07Z</time>
      </trkpt>
      <trkpt lat="44.11288" lon="3.32847">
        <ele>865</ele>
        <time>2009-07-08T15:34:09Z</time>
      </trkpt>
      <trkpt lat="44.11285" lon="3.32886">
        <ele>863</ele>
        <time>2009-07-08T15:34:14Z</time>
      </trkpt>
      <trkpt lat="44.11279" lon="3.32916">
        <ele>864</ele>
        <time>2009-07-08T15:34:18Z</time>
      </trkpt>
      <trkpt lat="44.11277" lon="3.32955">
        <ele>864</ele>
        <time>2009-07-08T15:34:23Z</time>
      </trkpt>
      <trkpt lat="44.11271" lon="3.32983">
        <ele>865</ele>
        <time>2009-07-08T15:34:27Z</time>
      </trkpt>
      <trkpt lat="44.11266" lon="3.32996">
        <ele>864</ele>
        <time>2009-07-08T15:34:29Z</time>
      </trkpt>
      <trkpt lat="44.11259" lon="3.33063">
        <ele>867</ele>
        <time>2009-07-08T15:34:41Z</time>
      </trkpt>
      <trkpt lat="44.11255" lon="3.33073">
        <ele>866</ele>
        <time>2009-07-08T15:34:51Z</time>
      </trkpt>
      <trkpt lat="44.11256" lon="3.33072">
        <ele>867</ele>
        <time>2009-07-08T15:35:51Z</time>
      </trkpt>
      <trkpt lat="44.11256" lon="3.33072">
        <ele>867</ele>
        <time>2009-07-08T15:36:12Z</time>
      </trkpt>
      <trkpt lat="44.11255" lon="3.33072">
        <ele>867</ele>
        <time>2009-07-08T15:36:47Z</time>
      </trkpt>
      <trkpt lat="44.11255" lon="3.33072">
        <ele>869</ele>
        <time>2009-07-08T15:37:26Z</time>
      </trkpt>
      <trkpt lat="44.11246" lon="3.33095">
        <ele>868</ele>
        <time>2009-07-08T15:37:41Z</time>
      </trkpt>
      <trkpt lat="44.11243" lon="3.3312">
        <ele>867</ele>
        <time>2009-07-08T15:37:48Z</time>
      </trkpt>
      <trkpt lat="44.11247" lon="3.33178">
        <ele>865</ele>
        <time>2009-07-08T15:37:58Z</time>
      </trkpt>
      <trkpt lat="44.11256" lon="3.33251">
        <ele>866</ele>
        <time>2009-07-08T15:38:12Z</time>
      </trkpt>
      <trkpt lat="44.1124" lon="3.33328">
        <ele>866</ele>
        <time>2009-07-08T15:38:27Z</time>
      </trkpt>
      <trkpt lat="44.11223" lon="3.33411">
        <ele>869</ele>
        <time>2009-07-08T15:38:43Z</time>
      </trkpt>
      <trkpt lat="44.11236" lon="3.33461">
        <ele>870</ele>
        <time>2009-07-08T15:38:54Z</time>
      </trkpt>
      <trkpt lat="44.11243" lon="3.33499">
        <ele>870</ele>
        <time>2009-07-08T15:39:01Z</time>
      </trkpt>
      <trkpt lat="44.11258" lon="3.33599">
        <ele>870</ele>
        <time>2009-07-08T15:39:18Z</time>
      </trkpt>
      <trkpt lat="44.11273" lon="3.33706">
        <ele>871</ele>
        <time>2009-07-08T15:39:35Z</time>
      </trkpt>
      <trkpt lat="44.11275" lon="3.33736">
        <ele>872</ele>
        <time>2009-07-08T15:39:40Z</time>
      </trkpt>
      <trkpt lat="44.11251" lon="3.3384">
        <ele>872</ele>
        <time>2009-07-08T15:39:58Z</time>
      </trkpt>
      <trkpt lat="44.11253" lon="3.33868">
        <ele>870</ele>
        <time>2009-07-08T15:40:02Z</time>
      </trkpt>
      <trkpt lat="44.11282" lon="3.33947">
        <ele>873</ele>
        <time>2009-07-08T15:40:17Z</time>
      </trkpt>
      <trkpt lat="44.11287" lon="3.33963">
        <ele>872</ele>
        <time>2009-07-08T15:40:20Z</time>
      </trkpt>
      <trkpt lat="44.11289" lon="3.33981">
        <ele>872</ele>
        <time>2009-07-08T15:40:23Z</time>
      </trkpt>
      <trkpt lat="44.11303" lon="3.34003">
        <ele>872</ele>
        <time>2009-07-08T15:40:28Z</time>
      </trkpt>
      <trkpt lat="44.11318" lon="3.34017">
        <ele>872</ele>
        <time>2009-07-08T15:40:32Z</time>
      </trkpt>
      <trkpt lat="44.11335" lon="3.3402">
        <ele>873</ele>
        <time>2009-07-08T15:40:36Z</time>
      </trkpt>
      <trkpt lat="44.11372" lon="3.34013">
        <ele>874</ele>
        <time>2009-07-08T15:40:45Z</time>
      </trkpt>
      <trkpt lat="44.11385" lon="3.34022">
        <ele>875</ele>
        <time>2009-07-08T15:40:49Z</time>
      </trkpt>
      <trkpt lat="44.11402" lon="3.34073">
        <ele>876</ele>
        <time>2009-07-08T15:41:03Z</time>
      </trkpt>
      <trkpt lat="44.11411" lon="3.34123">
        <ele>878</ele>
        <time>2009-07-08T15:41:18Z</time>
      </trkpt>
      <trkpt lat="44.11421" lon="3.34191">
        <ele>878</ele>
        <time>2009-07-08T15:41:36Z</time>
      </trkpt>
      <trkpt lat="44.1145" lon="3.34277">
        <ele>878</ele>
        <time>2009-07-08T15:41:54Z</time>
      </trkpt>
      <trkpt lat="44.11466" lon="3.3437">
        <ele>877</ele>
        <time>2009-07-08T15:42:12Z</time>
      </trkpt>
      <trkpt lat="44.11466" lon="3.34383">
        <ele>877</ele>
        <time>2009-07-08T15:42:14Z</time>
      </trkpt>
      <trkpt lat="44.11467" lon="3.34408">
        <ele>877</ele>
        <time>2009-07-08T15:42:18Z</time>
      </trkpt>
      <trkpt lat="44.11477" lon="3.34449">
        <ele>879</ele>
        <time>2009-07-08T15:42:26Z</time>
      </trkpt>
      <trkpt lat="44.11469" lon="3.3448">
        <ele>876</ele>
        <time>2009-07-08T15:42:31Z</time>
      </trkpt>
      <trkpt lat="44.11471" lon="3.34505">
        <ele>877</ele>
        <time>2009-07-08T15:42:35Z</time>
      </trkpt>
      <trkpt lat="44.11463" lon="3.34561">
        <ele>873</ele>
        <time>2009-07-08T15:42:45Z</time>
      </trkpt>
      <trkpt lat="44.11463" lon="3.34569">
        <ele>873</ele>
        <time>2009-07-08T15:42:46Z</time>
      </trkpt>
      <trkpt lat="44.11464" lon="3.34585">
        <ele>873</ele>
        <time>2009-07-08T15:42:48Z</time>
      </trkpt>
      <trkpt lat="44.11462" lon="3.34612">
        <ele>873</ele>
        <time>2009-07-08T15:42:52Z</time>
      </trkpt>
      <trkpt lat="44.11461" lon="3.34637">
        <ele>873</ele>
        <time>2009-07-08T15:42:56Z</time>
      </trkpt>
      <trkpt lat="44.11466" lon="3.34659">
        <ele>873</ele>
        <time>2009-07-08T15:43:00Z</time>
      </trkpt>
      <trkpt lat="44.11474" lon="3.34672">
        <ele>874</ele>
        <time>2009-07-08T15:43:03Z</time>
      </trkpt>
      <trkpt lat="44.11499" lon="3.34662">
        <ele>874</ele>
        <time>2009-07-08T15:43:11Z</time>
      </trkpt>
      <trkpt lat="44.11553" lon="3.34647">
        <ele>876</ele>
        <time>2009-07-08T15:43:27Z</time>
      </trkpt>
      <trkpt lat="44.11563" lon="3.34657">
        <ele>877</ele>
        <time>2009-07-08T15:43:31Z</time>
      </trkpt>
      <trkpt lat="44.11584" lon="3.34715">
        <ele>880</ele>
        <time>2009-07-08T15:43:45Z</time>
      </trkpt>
      <trkpt lat="44.11598" lon="3.34771">
        <ele>881</ele>
        <time>2009-07-08T15:43:57Z</time>
      </trkpt>
      <trkpt lat="44.11633" lon="3.34796">
        <ele>883</ele>
        <time>2009-07-08T15:44:07Z</time>
      </trkpt>
      <trkpt lat="44.11671" lon="3.34855">
        <ele>885</ele>
        <time>2009-07-08T15:44:23Z</time>
      </trkpt>
      <trkpt lat="44.11717" lon="3.34906">
        <ele>887</ele>
        <time>2009-07-08T15:44:38Z</time>
      </trkpt>
      <trkpt lat="44.11759" lon="3.34937">
        <ele>887</ele>
        <time>2009-07-08T15:44:50Z</time>
      </trkpt>
      <trkpt lat="44.11769" lon="3.34951">
        <ele>886</ele>
        <time>2009-07-08T15:44:53Z</time>
      </trkpt>
      <trkpt lat="44.11775" lon="3.34972">
        <ele>886</ele>
        <time>2009-07-08T15:44:56Z</time>
      </trkpt>
      <trkpt lat="44.11778" lon="3.34993">
        <ele>886</ele>
        <time>2009-07-08T15:44:59Z</time>
      </trkpt>
      <trkpt lat="44.11773" lon="3.35029">
        <ele>887</ele>
        <time>2009-07-08T15:45:05Z</time>
      </trkpt>
      <trkpt lat="44.11751" lon="3.35124">
        <ele>888</ele>
        <time>2009-07-08T15:45:23Z</time>
      </trkpt>
      <trkpt lat="44.11743" lon="3.35206">
        <ele>887</ele>
        <time>2009-07-08T15:45:40Z</time>
      </trkpt>
      <trkpt lat="44.11748" lon="3.35237">
        <ele>884</ele>
        <time>2009-07-08T15:45:45Z</time>
      </trkpt>
      <trkpt lat="44.11749" lon="3.35245">
        <ele>884</ele>
        <time>2009-07-08T15:45:46Z</time>
      </trkpt>
      <trkpt lat="44.1175" lon="3.35252">
        <ele>884</ele>
        <time>2009-07-08T15:45:47Z</time>
      </trkpt>
      <trkpt lat="44.11745" lon="3.35304">
        <ele>882</ele>
        <time>2009-07-08T15:45:55Z</time>
      </trkpt>
      <trkpt lat="44.11749" lon="3.35323">
        <ele>879</ele>
        <time>2009-07-08T15:45:58Z</time>
      </trkpt>
      <trkpt lat="44.1176" lon="3.35346">
        <ele>878</ele>
        <time>2009-07-08T15:46:01Z</time>
      </trkpt>
      <trkpt lat="44.11781" lon="3.35442">
        <ele>880</ele>
        <time>2009-07-08T15:46:14Z</time>
      </trkpt>
      <trkpt lat="44.11785" lon="3.35456">
        <ele>881</ele>
        <time>2009-07-08T15:46:17Z</time>
      </trkpt>
      <trkpt lat="44.11787" lon="3.35465">
        <ele>882</ele>
        <time>2009-07-08T15:46:19Z</time>
      </trkpt>
      <trkpt lat="44.11813" lon="3.35529">
        <ele>885</ele>
        <time>2009-07-08T15:46:34Z</time>
      </trkpt>
      <trkpt lat="44.11848" lon="3.35577">
        <ele>887</ele>
        <time>2009-07-08T15:46:48Z</time>
      </trkpt>
      <trkpt lat="44.11869" lon="3.35613">
        <ele>888</ele>
        <time>2009-07-08T15:46:58Z</time>
      </trkpt>
      <trkpt lat="44.11883" lon="3.35611">
        <ele>888</ele>
        <time>2009-07-08T15:47:05Z</time>
      </trkpt>
      <trkpt lat="44.11897" lon="3.35657">
        <ele>889</ele>
        <time>2009-07-08T15:47:18Z</time>
      </trkpt>
      <trkpt lat="44.11905" lon="3.35731">
        <ele>891</ele>
        <time>2009-07-08T15:47:35Z</time>
      </trkpt>
      <trkpt lat="44.11916" lon="3.35813">
        <ele>893</ele>
        <time>2009-07-08T15:47:52Z</time>
      </trkpt>
      <trkpt lat="44.1193" lon="3.35898">
        <ele>894</ele>
        <time>2009-07-08T15:48:08Z</time>
      </trkpt>
      <trkpt lat="44.11963" lon="3.36">
        <ele>896</ele>
        <time>2009-07-08T15:48:28Z</time>
      </trkpt>
      <trkpt lat="44.11995" lon="3.36114">
        <ele>898</ele>
        <time>2009-07-08T15:48:48Z</time>
      </trkpt>
      <trkpt lat="44.11995" lon="3.36221">
        <ele>899</ele>
        <time>2009-07-08T15:49:05Z</time>
      </trkpt>
      <trkpt lat="44.11984" lon="3.36334">
        <ele>900</ele>
        <time>2009-07-08T15:49:25Z</time>
      </trkpt>
      <trkpt lat="44.11963" lon="3.36408">
        <ele>897</ele>
        <time>2009-07-08T15:49:39Z</time>
      </trkpt>
      <trkpt lat="44.11954" lon="3.36428">
        <ele>895</ele>
        <time>2009-07-08T15:49:42Z</time>
      </trkpt>
      <trkpt lat="44.11947" lon="3.36473">
        <ele>893</ele>
        <time>2009-07-08T15:49:47Z</time>
      </trkpt>
      <trkpt lat="44.11956" lon="3.36525">
        <ele>888</ele>
        <time>2009-07-08T15:49:52Z</time>
      </trkpt>
      <trkpt lat="44.11961" lon="3.36535">
        <ele>888</ele>
        <time>2009-07-08T15:49:53Z</time>
      </trkpt>
      <trkpt lat="44.11968" lon="3.36556">
        <ele>888</ele>
        <time>2009-07-08T15:49:55Z</time>
      </trkpt>
      <trkpt lat="44.11975" lon="3.36594">
        <ele>889</ele>
        <time>2009-07-08T15:49:59Z</time>
      </trkpt>
      <trkpt lat="44.11978" lon="3.36621">
        <ele>888</ele>
        <time>2009-07-08T15:50:02Z</time>
      </trkpt>
      <trkpt lat="44.11979" lon="3.36659">
        <ele>890</ele>
        <time>2009-07-08T15:50:07Z</time>
      </trkpt>
      <trkpt lat="44.11968" lon="3.36751">
        <ele>892</ele>
        <time>2009-07-08T15:50:24Z</time>
      </trkpt>
      <trkpt lat="44.11971" lon="3.36836">
        <ele>889</ele>
        <time>2009-07-08T15:50:38Z</time>
      </trkpt>
      <trkpt lat="44.11977" lon="3.36853">
        <ele>889</ele>
        <time>2009-07-08T15:50:41Z</time>
      </trkpt>
      <trkpt lat="44.1199" lon="3.36894">
        <ele>888</ele>
        <time>2009-07-08T15:50:48Z</time>
      </trkpt>
      <trkpt lat="44.12" lon="3.37003">
        <ele>886</ele>
        <time>2009-07-08T15:51:06Z</time>
      </trkpt>
      <trkpt lat="44.12001" lon="3.37009">
        <ele>885</ele>
        <time>2009-07-08T15:51:07Z</time>
      </trkpt>
      <trkpt lat="44.12006" lon="3.37024">
        <ele>886</ele>
        <time>2009-07-08T15:51:10Z</time>
      </trkpt>
      <trkpt lat="44.12046" lon="3.3709">
        <ele>885</ele>
        <time>2009-07-08T15:51:23Z</time>
      </trkpt>
      <trkpt lat="44.12055" lon="3.37104">
        <ele>886</ele>
        <time>2009-07-08T15:51:26Z</time>
      </trkpt>
      <trkpt lat="44.12101" lon="3.37137">
        <ele>887</ele>
        <time>2009-07-08T15:51:38Z</time>
      </trkpt>
      <trkpt lat="44.12134" lon="3.37144">
        <ele>887</ele>
        <time>2009-07-08T15:51:46Z</time>
      </trkpt>
      <trkpt lat="44.12173" lon="3.37155">
        <ele>889</ele>
        <time>2009-07-08T15:51:58Z</time>
      </trkpt>
      <trkpt lat="44.12187" lon="3.37165">
        <ele>889</ele>
        <time>2009-07-08T15:52:04Z</time>
      </trkpt>
      <trkpt lat="44.12206" lon="3.37184">
        <ele>887</ele>
        <time>2009-07-08T15:52:11Z</time>
      </trkpt>
      <trkpt lat="44.12218" lon="3.372">
        <ele>887</ele>
        <time>2009-07-08T15:52:15Z</time>
      </trkpt>
      <trkpt lat="44.12246" lon="3.37233">
        <ele>887</ele>
        <time>2009-07-08T15:52:28Z</time>
      </trkpt>
      <trkpt lat="44.12279" lon="3.3727">
        <ele>888</ele>
        <time>2009-07-08T15:52:43Z</time>
      </trkpt>
      <trkpt lat="44.12301" lon="3.37292">
        <ele>888</ele>
        <time>2009-07-08T15:52:54Z</time>
      </trkpt>
      <trkpt lat="44.12317" lon="3.37306">
        <ele>888</ele>
        <time>2009-07-08T15:53:06Z</time>
      </trkpt>
      <trkpt lat="44.1232" lon="3.37311">
        <ele>889</ele>
        <time>2009-07-08T15:53:21Z</time>
      </trkpt>
      <trkpt lat="44.12321" lon="3.3731">
        <ele>886</ele>
        <time>2009-07-08T15:53:49Z</time>
      </trkpt>
      <trkpt lat="44.12321" lon="3.3731">
        <ele>890</ele>
        <time>2009-07-08T15:53:50Z</time>
      </trkpt>
      <trkpt lat="44.12321" lon="3.3731">
        <ele>885</ele>
        <time>2009-07-08T15:53:54Z</time>
      </trkpt>
      <trkpt lat="44.12321" lon="3.3731">
        <ele>889</ele>
        <time>2009-07-08T15:53:55Z</time>
      </trkpt>
      <trkpt lat="44.12321" lon="3.3731">
        <ele>888</ele>
        <time>2009-07-08T15:54:06Z</time>
      </trkpt>
      <trkpt lat="44.12321" lon="3.3731">
        <ele>891</ele>
        <time>2009-07-08T15:54:18Z</time>
      </trkpt>
      <trkpt lat="44.12321" lon="3.3731">
        <ele>888</ele>
        <time>2009-07-08T15:54:19Z</time>
      </trkpt>
      <trkpt lat="44.12321" lon="3.3731">
        <ele>885</ele>
        <time>2009-07-08T15:54:22Z</time>
      </trkpt>
      <trkpt lat="44.12321" lon="3.3731">
        <ele>888</ele>
        <time>2009-07-08T15:54:23Z</time>
      </trkpt>
      <trkpt lat="44.12321" lon="3.3731">
        <ele>887</ele>
        <time>2009-07-08T15:54:34Z</time>
      </trkpt>
      <trkpt lat="44.1232" lon="3.3731">
        <ele>891</ele>
        <time>2009-07-08T15:55:10Z</time>
      </trkpt>
      <trkpt lat="44.1232" lon="3.3731">
        <ele>888</ele>
        <time>2009-07-08T15:55:11Z</time>
      </trkpt>
      <trkpt lat="44.1232" lon="3.3731">
        <ele>884</ele>
        <time>2009-07-08T15:55:13Z</time>
      </trkpt>
      <trkpt lat="44.1232" lon="3.3731">
        <ele>888</ele>
        <time>2009-07-08T15:55:14Z</time>
      </trkpt>
      <trkpt lat="44.1232" lon="3.3731">
        <ele>891</ele>
        <time>2009-07-08T15:55:15Z</time>
      </trkpt>
      <trkpt lat="44.1232" lon="3.3731">
        <ele>887</ele>
        <time>2009-07-08T15:55:16Z</time>
      </trkpt>
      <trkpt lat="44.12321" lon="3.37312">
        <ele>889</ele>
        <time>2009-07-08T15:55:37Z</time>
      </trkpt>
      <trkpt lat="44.12325" lon="3.37319">
        <ele>888</ele>
        <time>2009-07-08T15:55:41Z</time>
      </trkpt>
      <trkpt lat="44.12347" lon="3.37347">
        <ele>889</ele>
        <time>2009-07-08T15:55:55Z</time>
      </trkpt>
      <trkpt lat="44.12366" lon="3.37371">
        <ele>889</ele>
        <time>2009-07-08T15:56:06Z</time>
      </trkpt>
      <trkpt lat="44.12381" lon="3.37399">
        <ele>889</ele>
        <time>2009-07-08T15:56:17Z</time>
      </trkpt>
      <trkpt lat="44.12389" lon="3.37438">
        <ele>889</ele>
        <time>2009-07-08T15:56:30Z</time>
      </trkpt>
      <trkpt lat="44.12393" lon="3.37454">
        <ele>891</ele>
        <time>2009-07-08T15:56:38Z</time>
      </trkpt>
      <trkpt lat="44.12395" lon="3.37462">
        <ele>890</ele>
        <time>2009-07-08T15:56:41Z</time>
      </trkpt>
      <trkpt lat="44.12397" lon="3.37473">
        <ele>889</ele>
        <time>2009-07-08T15:56:45Z</time>
      </trkpt>
      <trkpt lat="44.12398" lon="3.37478">
        <ele>890</ele>
        <time>2009-07-08T15:56:47Z</time>
      </trkpt>
      <trkpt lat="44.12401" lon="3.37489">
        <ele>890</ele>
        <time>2009-07-08T15:56:58Z</time>
      </trkpt>
      <trkpt lat="44.12404" lon="3.37496">
        <ele>890</ele>
        <time>2009-07-08T15:57:08Z</time>
      </trkpt>
      <trkpt lat="44.12407" lon="3.37503">
        <ele>890</ele>
        <time>2009-07-08T15:57:15Z</time>
      </trkpt>
      <trkpt lat="44.1241" lon="3.37505">
        <ele>890</ele>
        <time>2009-07-08T15:57:17Z</time>
      </trkpt>
      <trkpt lat="44.1242" lon="3.37516">
        <ele>890</ele>
        <time>2009-07-08T15:57:27Z</time>
      </trkpt>
      <trkpt lat="44.12428" lon="3.37523">
        <ele>890</ele>
        <time>2009-07-08T15:57:33Z</time>
      </trkpt>
      <trkpt lat="44.12443" lon="3.37537">
        <ele>890</ele>
        <time>2009-07-08T15:57:45Z</time>
      </trkpt>
      <trkpt lat="44.12454" lon="3.37546">
        <ele>890</ele>
        <time>2009-07-08T15:57:53Z</time>
      </trkpt>
      <trkpt lat="44.12477" lon="3.37566">
        <ele>891</ele>
        <time>2009-07-08T15:58:07Z</time>
      </trkpt>
      <trkpt lat="44.12484" lon="3.37569">
        <ele>892</ele>
        <time>2009-07-08T15:58:09Z</time>
      </trkpt>
      <trkpt lat="44.12502" lon="3.37578">
        <ele>892</ele>
        <time>2009-07-08T15:58:27Z</time>
      </trkpt>
      <trkpt lat="44.12508" lon="3.37584">
        <ele>893</ele>
        <time>2009-07-08T15:58:56Z</time>
      </trkpt>
      <trkpt lat="44.12507" lon="3.37582">
        <ele>894</ele>
        <time>2009-07-08T15:59:25Z</time>
      </trkpt>
      <trkpt lat="44.12507" lon="3.37583">
        <ele>890</ele>
        <time>2009-07-08T16:00:35Z</time>
      </trkpt>
      <trkpt lat="44.12507" lon="3.37583">
        <ele>894</ele>
        <time>2009-07-08T16:00:36Z</time>
      </trkpt>
      <trkpt lat="44.12507" lon="3.37584">
        <ele>893</ele>
        <time>2009-07-08T16:00:40Z</time>
      </trkpt>
      <trkpt lat="44.12507" lon="3.37584">
        <ele>896</ele>
        <time>2009-07-08T16:00:41Z</time>
      </trkpt>
      <trkpt lat="44.12507" lon="3.37584">
        <ele>890</ele>
        <time>2009-07-08T16:00:42Z</time>
      </trkpt>
      <trkpt lat="44.12507" lon="3.37584">
        <ele>896</ele>
        <time>2009-07-08T16:00:44Z</time>
      </trkpt>
      <trkpt lat="44.12507" lon="3.37584">
        <ele>896</ele>
        <time>2009-07-08T16:00:45Z</time>
      </trkpt>
      <trkpt lat="44.12507" lon="3.37584">
        <ele>891</ele>
        <time>2009-07-08T16:00:46Z</time>
      </trkpt>
      <trkpt lat="44.12507" lon="3.37584">
        <ele>896</ele>
        <time>2009-07-08T16:00:47Z</time>
      </trkpt>
      <trkpt lat="44.12507" lon="3.37585">
        <ele>893</ele>
        <time>2009-07-08T16:00:50Z</time>
      </trkpt>
      <trkpt lat="44.12505" lon="3.37582">
        <ele>893</ele>
        <time>2009-07-08T16:01:45Z</time>
      </trkpt>
      <trkpt lat="44.12505" lon="3.37582">
        <ele>893</ele>
        <time>2009-07-08T16:01:47Z</time>
      </trkpt>
      <trkpt lat="44.12531" lon="3.37587">
        <ele>895</ele>
        <time>2009-07-08T16:02:01Z</time>
      </trkpt>
      <trkpt lat="44.12564" lon="3.37615">
        <ele>896</ele>
        <time>2009-07-08T16:02:16Z</time>
      </trkpt>
      <trkpt lat="44.12607" lon="3.37671">
        <ele>897</ele>
        <time>2009-07-08T16:02:34Z</time>
      </trkpt>
      <trkpt lat="44.1264" lon="3.37734">
        <ele>898</ele>
        <time>2009-07-08T16:02:50Z</time>
      </trkpt>
      <trkpt lat="44.12665" lon="3.37792">
        <ele>898</ele>
        <time>2009-07-08T16:03:03Z</time>
      </trkpt>
      <trkpt lat="44.12694" lon="3.37887">
        <ele>900</ele>
        <time>2009-07-08T16:03:24Z</time>
      </trkpt>
      <trkpt lat="44.1275" lon="3.37931">
        <ele>903</ele>
        <time>2009-07-08T16:03:43Z</time>
      </trkpt>
      <trkpt lat="44.12795" lon="3.37958">
        <ele>902</ele>
        <time>2009-07-08T16:03:57Z</time>
      </trkpt>
      <trkpt lat="44.12797" lon="3.37971">
        <ele>902</ele>
        <time>2009-07-08T16:04:01Z</time>
      </trkpt>
      <trkpt lat="44.12788" lon="3.3799">
        <ele>901</ele>
        <time>2009-07-08T16:04:05Z</time>
      </trkpt>
      <trkpt lat="44.1275" lon="3.38059">
        <ele>902</ele>
        <time>2009-07-08T16:04:19Z</time>
      </trkpt>
      <trkpt lat="44.12716" lon="3.38148">
        <ele>905</ele>
        <time>2009-07-08T16:04:37Z</time>
      </trkpt>
      <trkpt lat="44.12684" lon="3.38212">
        <ele>907</ele>
        <time>2009-07-08T16:04:53Z</time>
      </trkpt>
      <trkpt lat="44.12639" lon="3.38279">
        <ele>909</ele>
        <time>2009-07-08T16:05:12Z</time>
      </trkpt>
      <trkpt lat="44.12601" lon="3.38313">
        <ele>911</ele>
        <time>2009-07-08T16:05:26Z</time>
      </trkpt>
      <trkpt lat="44.12564" lon="3.38338">
        <ele>915</ele>
        <time>2009-07-08T16:05:39Z</time>
      </trkpt>
      <trkpt lat="44.1252" lon="3.38341">
        <ele>916</ele>
        <time>2009-07-08T16:05:52Z</time>
      </trkpt>
      <trkpt lat="44.12463" lon="3.38346">
        <ele>918</ele>
        <time>2009-07-08T16:06:09Z</time>
      </trkpt>
      <trkpt lat="44.12409" lon="3.38343">
        <ele>919</ele>
        <time>2009-07-08T16:06:25Z</time>
      </trkpt>
      <trkpt lat="44.1236" lon="3.38344">
        <ele>921</ele>
        <time>2009-07-08T16:06:39Z</time>
      </trkpt>
      <trkpt lat="44.12339" lon="3.38314">
        <ele>922</ele>
        <time>2009-07-08T16:06:49Z</time>
      </trkpt>
      <trkpt lat="44.12329" lon="3.38291">
        <ele>923</ele>
        <time>2009-07-08T16:06:55Z</time>
      </trkpt>
      <trkpt lat="44.12309" lon="3.38287">
        <ele>925</ele>
        <time>2009-07-08T16:07:02Z</time>
      </trkpt>
      <trkpt lat="44.12281" lon="3.38287">
        <ele>928</ele>
        <time>2009-07-08T16:07:13Z</time>
      </trkpt>
      <trkpt lat="44.12268" lon="3.38288">
        <ele>929</ele>
        <time>2009-07-08T16:07:18Z</time>
      </trkpt>
      <trkpt lat="44.1224" lon="3.38298">
        <ele>932</ele>
        <time>2009-07-08T16:07:31Z</time>
      </trkpt>
      <trkpt lat="44.12219" lon="3.38334">
        <ele>934</ele>
        <time>2009-07-08T16:07:47Z</time>
      </trkpt>
      <trkpt lat="44.12199" lon="3.38346">
        <ele>935</ele>
        <time>2009-07-08T16:08:00Z</time>
      </trkpt>
      <trkpt lat="44.12198" lon="3.38347">
        <ele>937</ele>
        <time>2009-07-08T16:08:23Z</time>
      </trkpt>
      <trkpt lat="44.12198" lon="3.38348">
        <ele>932</ele>
        <time>2009-07-08T16:08:26Z</time>
      </trkpt>
      <trkpt lat="44.12198" lon="3.38348">
        <ele>938</ele>
        <time>2009-07-08T16:08:27Z</time>
      </trkpt>
      <trkpt lat="44.12198" lon="3.38348">
        <ele>936</ele>
        <time>2009-07-08T16:08:30Z</time>
      </trkpt>
      <trkpt lat="44.1218" lon="3.38348">
        <ele>935</ele>
        <time>2009-07-08T16:09:04Z</time>
      </trkpt>
      <trkpt lat="44.12159" lon="3.38374">
        <ele>934</ele>
        <time>2009-07-08T16:09:14Z</time>
      </trkpt>
      <trkpt lat="44.12156" lon="3.3838">
        <ele>933</ele>
        <time>2009-07-08T16:09:15Z</time>
      </trkpt>
      <trkpt lat="44.12151" lon="3.3839">
        <ele>932</ele>
        <time>2009-07-08T16:09:17Z</time>
      </trkpt>
      <trkpt lat="44.12144" lon="3.3841">
        <ele>930</ele>
        <time>2009-07-08T16:09:20Z</time>
      </trkpt>
      <trkpt lat="44.12142" lon="3.38418">
        <ele>929</ele>
        <time>2009-07-08T16:09:21Z</time>
      </trkpt>
      <trkpt lat="44.12125" lon="3.38486">
        <ele>930</ele>
        <time>2009-07-08T16:09:31Z</time>
      </trkpt>
      <trkpt lat="44.12131" lon="3.38552">
        <ele>930</ele>
        <time>2009-07-08T16:09:44Z</time>
      </trkpt>
      <trkpt lat="44.12143" lon="3.38582">
        <ele>930</ele>
        <time>2009-07-08T16:09:50Z</time>
      </trkpt>
      <trkpt lat="44.12146" lon="3.386">
        <ele>931</ele>
        <time>2009-07-08T16:09:53Z</time>
      </trkpt>
      <trkpt lat="44.12171" lon="3.38623">
        <ele>932</ele>
        <time>2009-07-08T16:10:01Z</time>
      </trkpt>
      <trkpt lat="44.12176" lon="3.3863">
        <ele>933</ele>
        <time>2009-07-08T16:10:03Z</time>
      </trkpt>
      <trkpt lat="44.12178" lon="3.38644">
        <ele>934</ele>
        <time>2009-07-08T16:10:06Z</time>
      </trkpt>
      <trkpt lat="44.1218" lon="3.38659">
        <ele>935</ele>
        <time>2009-07-08T16:10:16Z</time>
      </trkpt>
      <trkpt lat="44.1218" lon="3.38659">
        <ele>934</ele>
        <time>2009-07-08T16:10:43Z</time>
      </trkpt>
      <trkpt lat="44.12179" lon="3.38684">
        <ele>934</ele>
        <time>2009-07-08T16:11:26Z</time>
      </trkpt>
      <trkpt lat="44.12195" lon="3.38736">
        <ele>935</ele>
        <time>2009-07-08T16:11:38Z</time>
      </trkpt>
      <trkpt lat="44.12234" lon="3.3882">
        <ele>938</ele>
        <time>2009-07-08T16:11:56Z</time>
      </trkpt>
      <trkpt lat="44.12236" lon="3.38824">
        <ele>938</ele>
        <time>2009-07-08T16:11:57Z</time>
      </trkpt>
      <trkpt lat="44.12267" lon="3.38911">
        <ele>941</ele>
        <time>2009-07-08T16:12:16Z</time>
      </trkpt>
      <trkpt lat="44.12289" lon="3.38981">
        <ele>944</ele>
        <time>2009-07-08T16:12:33Z</time>
      </trkpt>
      <trkpt lat="44.12307" lon="3.39027">
        <ele>947</ele>
        <time>2009-07-08T16:12:46Z</time>
      </trkpt>
      <trkpt lat="44.12316" lon="3.3907">
        <ele>951</ele>
        <time>2009-07-08T16:12:57Z</time>
      </trkpt>
      <trkpt lat="44.12317" lon="3.39074">
        <ele>951</ele>
        <time>2009-07-08T16:12:58Z</time>
      </trkpt>
      <trkpt lat="44.12317" lon="3.39137">
        <ele>953</ele>
        <time>2009-07-08T16:13:14Z</time>
      </trkpt>
      <trkpt lat="44.12325" lon="3.39197">
        <ele>953</ele>
        <time>2009-07-08T16:13:33Z</time>
      </trkpt>
      <trkpt lat="44.12339" lon="3.39204">
        <ele>952</ele>
        <time>2009-07-08T16:13:39Z</time>
      </trkpt>
      <trkpt lat="44.12342" lon="3.39205">
        <ele>952</ele>
        <time>2009-07-08T16:13:41Z</time>
      </trkpt>
      <trkpt lat="44.12341" lon="3.39208">
        <ele>951</ele>
        <time>2009-07-08T16:13:58Z</time>
      </trkpt>
      <trkpt lat="44.12341" lon="3.3921">
        <ele>952</ele>
        <time>2009-07-08T16:14:18Z</time>
      </trkpt>
      <trkpt lat="44.12332" lon="3.39224">
        <ele>949</ele>
        <time>2009-07-08T16:14:23Z</time>
      </trkpt>
      <trkpt lat="44.12326" lon="3.39236">
        <ele>947</ele>
        <time>2009-07-08T16:14:25Z</time>
      </trkpt>
      <trkpt lat="44.12318" lon="3.39257">
        <ele>946</ele>
        <time>2009-07-08T16:14:28Z</time>
      </trkpt>
      <trkpt lat="44.12309" lon="3.39304">
        <ele>945</ele>
        <time>2009-07-08T16:14:34Z</time>
      </trkpt>
      <trkpt lat="44.12309" lon="3.39314">
        <ele>945</ele>
        <time>2009-07-08T16:14:42Z</time>
      </trkpt>
      <trkpt lat="44.12307" lon="3.39338">
        <ele>945</ele>
        <time>2009-07-08T16:15:15Z</time>
      </trkpt>
      <trkpt lat="44.12302" lon="3.39357">
        <ele>944</ele>
        <time>2009-07-08T16:15:19Z</time>
      </trkpt>
      <trkpt lat="44.12294" lon="3.39379">
        <ele>941</ele>
        <time>2009-07-08T16:15:23Z</time>
      </trkpt>
      <trkpt lat="44.12292" lon="3.39389">
        <ele>939</ele>
        <time>2009-07-08T16:15:25Z</time>
      </trkpt>
      <trkpt lat="44.12293" lon="3.39395">
        <ele>938</ele>
        <time>2009-07-08T16:15:27Z</time>
      </trkpt>
      <trkpt lat="44.12295" lon="3.39402">
        <ele>939</ele>
        <time>2009-07-08T16:15:29Z</time>
      </trkpt>
      <trkpt lat="44.12292" lon="3.39417">
        <ele>938</ele>
        <time>2009-07-08T16:15:34Z</time>
      </trkpt>
      <trkpt lat="44.12285" lon="3.39416">
        <ele>937</ele>
        <time>2009-07-08T16:15:36Z</time>
      </trkpt>
      <trkpt lat="44.12257" lon="3.39411">
        <ele>932</ele>
        <time>2009-07-08T16:15:41Z</time>
      </trkpt>
      <trkpt lat="44.12252" lon="3.39411">
        <ele>932</ele>
        <time>2009-07-08T16:15:42Z</time>
      </trkpt>
      <trkpt lat="44.12231" lon="3.39415">
        <ele>928</ele>
        <time>2009-07-08T16:15:46Z</time>
      </trkpt>
      <trkpt lat="44.12221" lon="3.39423">
        <ele>926</ele>
        <time>2009-07-08T16:15:48Z</time>
      </trkpt>
      <trkpt lat="44.12208" lon="3.39438">
        <ele>924</ele>
        <time>2009-07-08T16:15:51Z</time>
      </trkpt>
      <trkpt lat="44.12198" lon="3.39463">
        <ele>922</ele>
        <time>2009-07-08T16:15:55Z</time>
      </trkpt>
      <trkpt lat="44.12195" lon="3.39469">
        <ele>920</ele>
        <time>2009-07-08T16:15:56Z</time>
      </trkpt>
      <trkpt lat="44.12187" lon="3.39484">
        <ele>918</ele>
        <time>2009-07-08T16:15:58Z</time>
      </trkpt>
      <trkpt lat="44.12172" lon="3.39501">
        <ele>916</ele>
        <time>2009-07-08T16:16:01Z</time>
      </trkpt>
      <trkpt lat="44.12146" lon="3.39507">
        <ele>913</ele>
        <time>2009-07-08T16:16:06Z</time>
      </trkpt>
      <trkpt lat="44.12115" lon="3.39504">
        <ele>908</ele>
        <time>2009-07-08T16:16:12Z</time>
      </trkpt>
      <trkpt lat="44.121" lon="3.39517">
        <ele>905</ele>
        <time>2009-07-08T16:16:15Z</time>
      </trkpt>
      <trkpt lat="44.12089" lon="3.39524">
        <ele>903</ele>
        <time>2009-07-08T16:16:17Z</time>
      </trkpt>
      <trkpt lat="44.12078" lon="3.3953">
        <ele>901</ele>
        <time>2009-07-08T16:16:19Z</time>
      </trkpt>
      <trkpt lat="44.12065" lon="3.39536">
        <ele>900</ele>
        <time>2009-07-08T16:16:21Z</time>
      </trkpt>
      <trkpt lat="44.12041" lon="3.39551">
        <ele>895</ele>
        <time>2009-07-08T16:16:25Z</time>
      </trkpt>
      <trkpt lat="44.12024" lon="3.39566">
        <ele>891</ele>
        <time>2009-07-08T16:16:28Z</time>
      </trkpt>
      <trkpt lat="44.12012" lon="3.39576">
        <ele>888</ele>
        <time>2009-07-08T16:16:30Z</time>
      </trkpt>
      <trkpt lat="44.11986" lon="3.39599">
        <ele>885</ele>
        <time>2009-07-08T16:16:34Z</time>
      </trkpt>
      <trkpt lat="44.11964" lon="3.39616">
        <ele>881</ele>
        <time>2009-07-08T16:16:37Z</time>
      </trkpt>
      <trkpt lat="44.11958" lon="3.39623">
        <ele>879</ele>
        <time>2009-07-08T16:16:38Z</time>
      </trkpt>
      <trkpt lat="44.11923" lon="3.39659">
        <ele>876</ele>
        <time>2009-07-08T16:16:43Z</time>
      </trkpt>
      <trkpt lat="44.11916" lon="3.39666">
        <ele>876</ele>
        <time>2009-07-08T16:16:44Z</time>
      </trkpt>
      <trkpt lat="44.11904" lon="3.39676">
        <ele>874</ele>
        <time>2009-07-08T16:16:46Z</time>
      </trkpt>
      <trkpt lat="44.11897" lon="3.39688">
        <ele>876</ele>
        <time>2009-07-08T16:16:53Z</time>
      </trkpt>
      <trkpt lat="44.11894" lon="3.3969">
        <ele>876</ele>
        <time>2009-07-08T16:17:12Z</time>
      </trkpt>
      <trkpt lat="44.11901" lon="3.39683">
        <ele>875</ele>
        <time>2009-07-08T16:17:30Z</time>
      </trkpt>
      <trkpt lat="44.11902" lon="3.39681">
        <ele>875</ele>
        <time>2009-07-08T16:17:36Z</time>
      </trkpt>
      <trkpt lat="44.11905" lon="3.39678">
        <ele>874</ele>
        <time>2009-07-08T16:17:38Z</time>
      </trkpt>
      <trkpt lat="44.11909" lon="3.39676">
        <ele>873</ele>
        <time>2009-07-08T16:17:41Z</time>
      </trkpt>
      <trkpt lat="44.11914" lon="3.39673">
        <ele>872</ele>
        <time>2009-07-08T16:17:43Z</time>
      </trkpt>
      <trkpt lat="44.11918" lon="3.39672">
        <ele>871</ele>
        <time>2009-07-08T16:17:45Z</time>
      </trkpt>
      <trkpt lat="44.11924" lon="3.39669">
        <ele>870</ele>
        <time>2009-07-08T16:17:47Z</time>
      </trkpt>
      <trkpt lat="44.11931" lon="3.39668">
        <ele>868</ele>
        <time>2009-07-08T16:17:49Z</time>
      </trkpt>
      <trkpt lat="44.11942" lon="3.39668">
        <ele>868</ele>
        <time>2009-07-08T16:17:51Z</time>
      </trkpt>
      <trkpt lat="44.11967" lon="3.39669">
        <ele>869</ele>
        <time>2009-07-08T16:18:00Z</time>
      </trkpt>
      <trkpt lat="44.11967" lon="3.39672">
        <ele>869</ele>
        <time>2009-07-08T16:18:02Z</time>
      </trkpt>
      <trkpt lat="44.11956" lon="3.39683">
        <ele>867</ele>
        <time>2009-07-08T16:18:07Z</time>
      </trkpt>
      <trkpt lat="44.11949" lon="3.3969">
        <ele>864</ele>
        <time>2009-07-08T16:18:09Z</time>
      </trkpt>
      <trkpt lat="44.11938" lon="3.397">
        <ele>861</ele>
        <time>2009-07-08T16:18:11Z</time>
      </trkpt>
      <trkpt lat="44.1191" lon="3.39724">
        <ele>859</ele>
        <time>2009-07-08T16:18:15Z</time>
      </trkpt>
      <trkpt lat="44.11898" lon="3.39738">
        <ele>863</ele>
        <time>2009-07-08T16:18:19Z</time>
      </trkpt>
      <trkpt lat="44.11901" lon="3.39732">
        <ele>862</ele>
        <time>2009-07-08T16:18:32Z</time>
      </trkpt>
      <trkpt lat="44.11898" lon="3.39735">
        <ele>861</ele>
        <time>2009-07-08T16:18:34Z</time>
      </trkpt>
      <trkpt lat="44.11892" lon="3.3974">
        <ele>860</ele>
        <time>2009-07-08T16:18:37Z</time>
      </trkpt>
      <trkpt lat="44.11882" lon="3.39745">
        <ele>859</ele>
        <time>2009-07-08T16:18:40Z</time>
      </trkpt>
      <trkpt lat="44.11868" lon="3.39754">
        <ele>858</ele>
        <time>2009-07-08T16:18:49Z</time>
      </trkpt>
      <trkpt lat="44.11862" lon="3.39756">
        <ele>856</ele>
        <time>2009-07-08T16:19:13Z</time>
      </trkpt>
      <trkpt lat="44.11855" lon="3.39761">
        <ele>856</ele>
        <time>2009-07-08T16:19:33Z</time>
      </trkpt>
      <trkpt lat="44.11846" lon="3.39762">
        <ele>858</ele>
        <time>2009-07-08T16:19:46Z</time>
      </trkpt>
      <trkpt lat="44.11844" lon="3.39762">
        <ele>858</ele>
        <time>2009-07-08T16:19:47Z</time>
      </trkpt>
      <trkpt lat="44.11837" lon="3.39761">
        <ele>859</ele>
        <time>2009-07-08T16:19:52Z</time>
      </trkpt>
      <trkpt lat="44.11818" lon="3.39769">
        <ele>859</ele>
        <time>2009-07-08T16:20:03Z</time>
      </trkpt>
      <trkpt lat="44.11816" lon="3.39771">
        <ele>859</ele>
        <time>2009-07-08T16:20:04Z</time>
      </trkpt>
      <trkpt lat="44.11811" lon="3.39775">
        <ele>860</ele>
        <time>2009-07-08T16:20:06Z</time>
      </trkpt>
      <trkpt lat="44.11802" lon="3.39788">
        <ele>858</ele>
        <time>2009-07-08T16:20:09Z</time>
      </trkpt>
      <trkpt lat="44.11783" lon="3.39811">
        <ele>857</ele>
        <time>2009-07-08T16:20:16Z</time>
      </trkpt>
      <trkpt lat="44.11775" lon="3.39817">
        <ele>857</ele>
        <time>2009-07-08T16:20:18Z</time>
      </trkpt>
      <trkpt lat="44.11749" lon="3.39847">
        <ele>857</ele>
        <time>2009-07-08T16:20:29Z</time>
      </trkpt>
      <trkpt lat="44.11735" lon="3.39862">
        <ele>856</ele>
        <time>2009-07-08T16:20:34Z</time>
      </trkpt>
      <trkpt lat="44.11718" lon="3.3989">
        <ele>853</ele>
        <time>2009-07-08T16:20:40Z</time>
      </trkpt>
      <trkpt lat="44.11707" lon="3.39915">
        <ele>850</ele>
        <time>2009-07-08T16:20:45Z</time>
      </trkpt>
      <trkpt lat="44.11704" lon="3.39926">
        <ele>849</ele>
        <time>2009-07-08T16:20:47Z</time>
      </trkpt>
      <trkpt lat="44.11701" lon="3.39943">
        <ele>846</ele>
        <time>2009-07-08T16:20:50Z</time>
      </trkpt>
      <trkpt lat="44.11695" lon="3.39963">
        <ele>841</ele>
        <time>2009-07-08T16:20:53Z</time>
      </trkpt>
      <trkpt lat="44.11692" lon="3.3997">
        <ele>840</ele>
        <time>2009-07-08T16:20:54Z</time>
      </trkpt>
      <trkpt lat="44.11689" lon="3.39984">
        <ele>840</ele>
        <time>2009-07-08T16:20:56Z</time>
      </trkpt>
      <trkpt lat="44.11684" lon="3.40019">
        <ele>839</ele>
        <time>2009-07-08T16:21:01Z</time>
      </trkpt>
      <trkpt lat="44.11679" lon="3.40031">
        <ele>840</ele>
        <time>2009-07-08T16:21:03Z</time>
      </trkpt>
      <trkpt lat="44.11673" lon="3.40058">
        <ele>835</ele>
        <time>2009-07-08T16:21:07Z</time>
      </trkpt>
      <trkpt lat="44.11669" lon="3.40071">
        <ele>834</ele>
        <time>2009-07-08T16:21:09Z</time>
      </trkpt>
      <trkpt lat="44.11666" lon="3.40083">
        <ele>834</ele>
        <time>2009-07-08T16:21:11Z</time>
      </trkpt>
      <trkpt lat="44.11663" lon="3.4011">
        <ele>832</ele>
        <time>2009-07-08T16:21:16Z</time>
      </trkpt>
      <trkpt lat="44.11657" lon="3.40141">
        <ele>829</ele>
        <time>2009-07-08T16:21:23Z</time>
      </trkpt>
      <trkpt lat="44.11655" lon="3.40147">
        <ele>827</ele>
        <time>2009-07-08T16:21:24Z</time>
      </trkpt>
      <trkpt lat="44.11647" lon="3.40176">
        <ele>824</ele>
        <time>2009-07-08T16:21:29Z</time>
      </trkpt>
      <trkpt lat="44.11628" lon="3.40222">
        <ele>819</ele>
        <time>2009-07-08T16:21:36Z</time>
      </trkpt>
      <trkpt lat="44.11625" lon="3.40228">
        <ele>819</ele>
        <time>2009-07-08T16:21:37Z</time>
      </trkpt>
      <trkpt lat="44.11608" lon="3.40252">
        <ele>817</ele>
        <time>2009-07-08T16:21:41Z</time>
      </trkpt>
      <trkpt lat="44.11596" lon="3.40268">
        <ele>813</ele>
        <time>2009-07-08T16:21:44Z</time>
      </trkpt>
      <trkpt lat="44.11572" lon="3.40291">
        <ele>810</ele>
        <time>2009-07-08T16:21:49Z</time>
      </trkpt>
      <trkpt lat="44.11562" lon="3.40298">
        <ele>808</ele>
        <time>2009-07-08T16:21:51Z</time>
      </trkpt>
      <trkpt lat="44.1154" lon="3.4031">
        <ele>805</ele>
        <time>2009-07-08T16:21:55Z</time>
      </trkpt>
      <trkpt lat="44.1152" lon="3.40316">
        <ele>803</ele>
        <time>2009-07-08T16:21:58Z</time>
      </trkpt>
      <trkpt lat="44.11507" lon="3.4032">
        <ele>801</ele>
        <time>2009-07-08T16:22:00Z</time>
      </trkpt>
      <trkpt lat="44.11465" lon="3.40337">
        <ele>798</ele>
        <time>2009-07-08T16:22:08Z</time>
      </trkpt>
      <trkpt lat="44.11458" lon="3.40342">
        <ele>798</ele>
        <time>2009-07-08T16:22:10Z</time>
      </trkpt>
      <trkpt lat="44.11454" lon="3.40345">
        <ele>797</ele>
        <time>2009-07-08T16:22:11Z</time>
      </trkpt>
      <trkpt lat="44.11445" lon="3.40348">
        <ele>796</ele>
        <time>2009-07-08T16:22:13Z</time>
      </trkpt>
      <trkpt lat="44.1142" lon="3.40353">
        <ele>795</ele>
        <time>2009-07-08T16:22:21Z</time>
      </trkpt>
      <trkpt lat="44.11414" lon="3.40354">
        <ele>793</ele>
        <time>2009-07-08T16:22:38Z</time>
      </trkpt>
      <trkpt lat="44.1141" lon="3.40353">
        <ele>793</ele>
        <time>2009-07-08T16:22:44Z</time>
      </trkpt>
      <trkpt lat="44.114" lon="3.40343">
        <ele>790</ele>
        <time>2009-07-08T16:22:51Z</time>
      </trkpt>
      <trkpt lat="44.11395" lon="3.40327">
        <ele>789</ele>
        <time>2009-07-08T16:22:58Z</time>
      </trkpt>
      <trkpt lat="44.1139" lon="3.40323">
        <ele>788</ele>
        <time>2009-07-08T16:23:01Z</time>
      </trkpt>
      <trkpt lat="44.11385" lon="3.40314">
        <ele>785</ele>
        <time>2009-07-08T16:23:13Z</time>
      </trkpt>
      <trkpt lat="44.1138" lon="3.4031">
        <ele>784</ele>
        <time>2009-07-08T16:23:26Z</time>
      </trkpt>
      <trkpt lat="44.11377" lon="3.403">
        <ele>783</ele>
        <time>2009-07-08T16:23:36Z</time>
      </trkpt>
      <trkpt lat="44.11367" lon="3.40281">
        <ele>782</ele>
        <time>2009-07-08T16:23:45Z</time>
      </trkpt>
      <trkpt lat="44.11351" lon="3.40268">
        <ele>779</ele>
        <time>2009-07-08T16:23:52Z</time>
      </trkpt>
      <trkpt lat="44.11345" lon="3.40267">
        <ele>777</ele>
        <time>2009-07-08T16:23:54Z</time>
      </trkpt>
      <trkpt lat="44.11338" lon="3.40263">
        <ele>776</ele>
        <time>2009-07-08T16:23:58Z</time>
      </trkpt>
      <trkpt lat="44.11332" lon="3.40261">
        <ele>774</ele>
        <time>2009-07-08T16:24:01Z</time>
      </trkpt>
      <trkpt lat="44.11329" lon="3.40259">
        <ele>774</ele>
        <time>2009-07-08T16:24:02Z</time>
      </trkpt>
      <trkpt lat="44.11323" lon="3.40253">
        <ele>773</ele>
        <time>2009-07-08T16:24:05Z</time>
      </trkpt>
      <trkpt lat="44.11314" lon="3.40251">
        <ele>771</ele>
        <time>2009-07-08T16:24:08Z</time>
      </trkpt>
      <trkpt lat="44.11308" lon="3.4025">
        <ele>770</ele>
        <time>2009-07-08T16:24:10Z</time>
      </trkpt>
      <trkpt lat="44.1129" lon="3.40242">
        <ele>767</ele>
        <time>2009-07-08T16:24:17Z</time>
      </trkpt>
      <trkpt lat="44.1128" lon="3.40236">
        <ele>765</ele>
        <time>2009-07-08T16:24:21Z</time>
      </trkpt>
      <trkpt lat="44.11266" lon="3.4023">
        <ele>761</ele>
        <time>2009-07-08T16:24:26Z</time>
      </trkpt>
      <trkpt lat="44.11263" lon="3.40228">
        <ele>761</ele>
        <time>2009-07-08T16:24:27Z</time>
      </trkpt>
      <trkpt lat="44.11248" lon="3.40222">
        <ele>758</ele>
        <time>2009-07-08T16:24:33Z</time>
      </trkpt>
      <trkpt lat="44.11232" lon="3.40216">
        <ele>756</ele>
        <time>2009-07-08T16:24:38Z</time>
      </trkpt>
      <trkpt lat="44.11225" lon="3.40212">
        <ele>755</ele>
        <time>2009-07-08T16:24:41Z</time>
      </trkpt>
      <trkpt lat="44.11203" lon="3.40204">
        <ele>752</ele>
        <time>2009-07-08T16:24:49Z</time>
      </trkpt>
      <trkpt lat="44.11196" lon="3.40195">
        <ele>750</ele>
        <time>2009-07-08T16:25:00Z</time>
      </trkpt>
      <trkpt lat="44.11194" lon="3.40191">
        <ele>750</ele>
        <time>2009-07-08T16:25:08Z</time>
      </trkpt>
      <trkpt lat="44.11191" lon="3.40185">
        <ele>748</ele>
        <time>2009-07-08T16:25:14Z</time>
      </trkpt>
      <trkpt lat="44.11189" lon="3.40189">
        <ele>747</ele>
        <time>2009-07-08T16:25:16Z</time>
      </trkpt>
      <trkpt lat="44.11188" lon="3.40199">
        <ele>747</ele>
        <time>2009-07-08T16:25:30Z</time>
      </trkpt>
      <trkpt lat="44.11185" lon="3.40202">
        <ele>748</ele>
        <time>2009-07-08T16:26:03Z</time>
      </trkpt>
      <trkpt lat="44.11189" lon="3.40204">
        <ele>747</ele>
        <time>2009-07-08T16:28:59Z</time>
      </trkpt>
      <trkpt lat="44.11198" lon="3.40235">
        <ele>747</ele>
        <time>2009-07-08T16:29:11Z</time>
      </trkpt>
      <trkpt lat="44.11235" lon="3.40262">
        <ele>745</ele>
        <time>2009-07-08T16:29:23Z</time>
      </trkpt>
      <trkpt lat="44.11272" lon="3.40289">
        <ele>746</ele>
        <time>2009-07-08T16:29:34Z</time>
      </trkpt>
      <trkpt lat="44.11294" lon="3.40317">
        <ele>746</ele>
        <time>2009-07-08T16:29:44Z</time>
      </trkpt>
      <trkpt lat="44.11313" lon="3.40359">
        <ele>746</ele>
        <time>2009-07-08T16:29:55Z</time>
      </trkpt>
      <trkpt lat="44.11313" lon="3.40402">
        <ele>745</ele>
        <time>2009-07-08T16:30:05Z</time>
      </trkpt>
      <trkpt lat="44.11318" lon="3.40424">
        <ele>745</ele>
        <time>2009-07-08T16:30:10Z</time>
      </trkpt>
      <trkpt lat="44.11325" lon="3.40439">
        <ele>743</ele>
        <time>2009-07-08T16:30:13Z</time>
      </trkpt>
      <trkpt lat="44.11331" lon="3.40462">
        <ele>742</ele>
        <time>2009-07-08T16:30:17Z</time>
      </trkpt>
      <trkpt lat="44.11331" lon="3.40475">
        <ele>742</ele>
        <time>2009-07-08T16:30:19Z</time>
      </trkpt>
      <trkpt lat="44.11329" lon="3.40501">
        <ele>739</ele>
        <time>2009-07-08T16:30:23Z</time>
      </trkpt>
      <trkpt lat="44.11323" lon="3.40528">
        <ele>735</ele>
        <time>2009-07-08T16:30:28Z</time>
      </trkpt>
      <trkpt lat="44.11321" lon="3.40544">
        <ele>735</ele>
        <time>2009-07-08T16:30:36Z</time>
      </trkpt>
      <trkpt lat="44.11326" lon="3.4054">
        <ele>735</ele>
        <time>2009-07-08T16:31:08Z</time>
      </trkpt>
      <trkpt lat="44.11335" lon="3.40576">
        <ele>735</ele>
        <time>2009-07-08T16:31:20Z</time>
      </trkpt>
      <trkpt lat="44.11358" lon="3.40599">
        <ele>736</ele>
        <time>2009-07-08T16:31:29Z</time>
      </trkpt>
      <trkpt lat="44.11395" lon="3.40589">
        <ele>738</ele>
        <time>2009-07-08T16:31:39Z</time>
      </trkpt>
      <trkpt lat="44.11402" lon="3.40593">
        <ele>737</ele>
        <time>2009-07-08T16:31:41Z</time>
      </trkpt>
      <trkpt lat="44.11418" lon="3.40621">
        <ele>737</ele>
        <time>2009-07-08T16:31:47Z</time>
      </trkpt>
      <trkpt lat="44.1142" lon="3.40637">
        <ele>736</ele>
        <time>2009-07-08T16:31:50Z</time>
      </trkpt>
      <trkpt lat="44.11434" lon="3.40661">
        <ele>736</ele>
        <time>2009-07-08T16:31:55Z</time>
      </trkpt>
      <trkpt lat="44.11505" lon="3.40701">
        <ele>737</ele>
        <time>2009-07-08T16:32:11Z</time>
      </trkpt>
      <trkpt lat="44.11534" lon="3.40713">
        <ele>737</ele>
        <time>2009-07-08T16:32:18Z</time>
      </trkpt>
      <trkpt lat="44.11547" lon="3.40738">
        <ele>737</ele>
        <time>2009-07-08T16:32:23Z</time>
      </trkpt>
      <trkpt lat="44.11558" lon="3.40825">
        <ele>737</ele>
        <time>2009-07-08T16:32:37Z</time>
      </trkpt>
      <trkpt lat="44.11554" lon="3.40864">
        <ele>737</ele>
        <time>2009-07-08T16:32:43Z</time>
      </trkpt>
      <trkpt lat="44.11559" lon="3.41013">
        <ele>736</ele>
        <time>2009-07-08T16:33:05Z</time>
      </trkpt>
      <trkpt lat="44.11555" lon="3.41095">
        <ele>737</ele>
        <time>2009-07-08T16:33:19Z</time>
      </trkpt>
      <trkpt lat="44.11554" lon="3.41159">
        <ele>737</ele>
        <time>2009-07-08T16:33:32Z</time>
      </trkpt>
      <trkpt lat="44.11562" lon="3.41188">
        <ele>738</ele>
        <time>2009-07-08T16:33:41Z</time>
      </trkpt>
      <trkpt lat="44.11567" lon="3.41194">
        <ele>738</ele>
        <time>2009-07-08T16:33:53Z</time>
      </trkpt>
      <trkpt lat="44.11568" lon="3.41193">
        <ele>738</ele>
        <time>2009-07-08T16:34:34Z</time>
      </trkpt>
      <trkpt lat="44.11569" lon="3.41193">
        <ele>738</ele>
        <time>2009-07-08T16:35:08Z</time>
      </trkpt>
      <trkpt lat="44.11569" lon="3.41195">
        <ele>738</ele>
        <time>2009-07-08T16:35:32Z</time>
      </trkpt>
    </trkseg>
  </trk>
</gpx>